PLT8540 SBGR-FAOR
Flight info
| Callsign | PLT8540 |
|---|---|
| Flight time | 7h 53m |
| Altitude | 35000 |
| Route | UREMI DCT DORLU UZ42 UGRAD DCT CIDER DCT 26S035W 27S030W 28S025W 29S020W 30S015W/N0476F370 30S010W 30S005W 30S000E 30S005E 30S010E DCT UVGOD DCT ABV UQ11 AVUSA UQ19 AVAGO AVAGO1D |
| Aircraft | B77W/H-SDE1E2E3FGHIJ2J3J4J5M1RWXY/LB1D1 |
Departure
| Time | 2026-05-05 13:23 |
|---|---|
| Airport | São Paulo/Guarulhos–Governor André Franco Montoro International Airport (SBGR) |
Arrival
| Time | 2026-05-05 21:16 |
|---|---|
| Airport | O.R. Tambo International Airport (FAOR) |
| Time | Latitude | Longitude | Altitude | Speed | Heading |
|---|---|---|---|---|---|
| 2026-05-05 12:40 | -23.42835 | -46.47394 | 2473 ft | 0 kts | 72° |
| 2026-05-05 13:11 | -23.42835 | -46.47396 | 2473 ft | 2 kts | 72° |
| 2026-05-05 13:11 | -23.42841 | -46.47417 | 2474 ft | 3 kts | 72° |
| 2026-05-05 13:11 | -23.42847 | -46.47438 | 2474 ft | 3 kts | 73° |
| 2026-05-05 13:12 | -23.42853 | -46.47459 | 2476 ft | 3 kts | 73° |
| 2026-05-05 13:12 | -23.42858 | -46.47477 | 2475 ft | 3 kts | 99° |
| 2026-05-05 13:12 | -23.42851 | -46.47492 | 2476 ft | 3 kts | 155° |
| 2026-05-05 13:12 | -23.42832 | -46.47499 | 2473 ft | 3 kts | 166° |
| 2026-05-05 13:13 | -23.42824 | -46.47501 | 2473 ft | 0 kts | 165° |
| 2026-05-05 13:15 | -23.42826 | -46.47500 | 2473 ft | 1 kts | 165° |
| 2026-05-05 13:15 | -23.42833 | -46.47498 | 2473 ft | 1 kts | 165° |
| 2026-05-05 13:16 | -23.42838 | -46.47497 | 2474 ft | 1 kts | 165° |
| 2026-05-05 13:16 | -23.42845 | -46.47495 | 2474 ft | 2 kts | 165° |
| 2026-05-05 13:16 | -23.42862 | -46.47489 | 2474 ft | 3 kts | 165° |
| 2026-05-05 13:16 | -23.42888 | -46.47482 | 2475 ft | 4 kts | 165° |
| 2026-05-05 13:17 | -23.42919 | -46.47472 | 2477 ft | 5 kts | 162° |
| 2026-05-05 13:17 | -23.42953 | -46.47459 | 2477 ft | 5 kts | 160° |
| 2026-05-05 13:17 | -23.42991 | -46.47449 | 2478 ft | 6 kts | 179° |
| 2026-05-05 13:17 | -23.43020 | -46.47478 | 2478 ft | 6 kts | 246° |
| 2026-05-05 13:18 | -23.43036 | -46.47527 | 2475 ft | 7 kts | 252° |
| 2026-05-05 13:18 | -23.43052 | -46.47587 | 2473 ft | 9 kts | 253° |
| 2026-05-05 13:18 | -23.43070 | -46.47652 | 2477 ft | 9 kts | 253° |
| 2026-05-05 13:18 | -23.43088 | -46.47718 | 2476 ft | 9 kts | 253° |
| 2026-05-05 13:19 | -23.43105 | -46.47783 | 2476 ft | 9 kts | 253° |
| 2026-05-05 13:19 | -23.43123 | -46.47849 | 2474 ft | 9 kts | 253° |
| 2026-05-05 13:19 | -23.43140 | -46.47913 | 2478 ft | 9 kts | 253° |
| 2026-05-05 13:19 | -23.43158 | -46.47980 | 2475 ft | 9 kts | 253° |
| 2026-05-05 13:20 | -23.43176 | -46.48044 | 2475 ft | 9 kts | 253° |
| 2026-05-05 13:20 | -23.43195 | -46.48110 | 2475 ft | 9 kts | 253° |
| 2026-05-05 13:20 | -23.43213 | -46.48175 | 2479 ft | 9 kts | 253° |
| 2026-05-05 13:20 | -23.43230 | -46.48240 | 2477 ft | 9 kts | 253° |
| 2026-05-05 13:21 | -23.43249 | -46.48306 | 2476 ft | 9 kts | 253° |
| 2026-05-05 13:21 | -23.43288 | -46.48354 | 2478 ft | 9 kts | 197° |
| 2026-05-05 13:21 | -23.43350 | -46.48349 | 2477 ft | 9 kts | 167° |
| 2026-05-05 13:21 | -23.43392 | -46.48337 | 2480 ft | 5 kts | 165° |
| 2026-05-05 13:22 | -23.43415 | -46.48311 | 2478 ft | 5 kts | 95° |
| 2026-05-05 13:22 | -23.43399 | -46.48225 | 2479 ft | 27 kts | 75° |
| 2026-05-05 13:22 | -23.43280 | -46.47790 | 2477 ft | 93 kts | 73° |
| 2026-05-05 13:22 | -23.43039 | -46.46904 | 2479 ft | 149 kts | 73° |
| 2026-05-05 13:23 | -23.42703 | -46.45669 | 2548 ft | 182 kts | 74° |
| 2026-05-05 13:23 | -23.42389 | -46.44325 | 2979 ft | 190 kts | 73° |
| 2026-05-05 13:23 | -23.41976 | -46.42899 | 3251 ft | 207 kts | 71° |
| 2026-05-05 13:23 | -23.41512 | -46.41372 | 3652 ft | 217 kts | 70° |
| 2026-05-05 13:24 | -23.41037 | -46.39804 | 4204 ft | 220 kts | 71° |
| 2026-05-05 13:24 | -23.40536 | -46.38144 | 4460 ft | 243 kts | 70° |
| 2026-05-05 13:24 | -23.40178 | -46.36281 | 4665 ft | 262 kts | 90° |
| 2026-05-05 13:24 | -23.40505 | -46.34280 | 5180 ft | 274 kts | 108° |
| 2026-05-05 13:25 | -23.41160 | -46.32292 | 5838 ft | 282 kts | 111° |
| 2026-05-05 13:25 | -23.41857 | -46.30298 | 6654 ft | 281 kts | 111° |
| 2026-05-05 13:25 | -23.42533 | -46.28309 | 7380 ft | 280 kts | 111° |
| 2026-05-05 13:25 | -23.43197 | -46.26306 | 8080 ft | 283 kts | 111° |
| 2026-05-05 13:26 | -23.43857 | -46.24276 | 8788 ft | 286 kts | 109° |
| 2026-05-05 13:26 | -23.44340 | -46.22160 | 9421 ft | 290 kts | 102° |
| 2026-05-05 13:26 | -23.44703 | -46.19984 | 10108 ft | 292 kts | 101° |
| 2026-05-05 13:26 | -23.45049 | -46.17789 | 10675 ft | 299 kts | 101° |
| 2026-05-05 13:27 | -23.45421 | -46.15476 | 10868 ft | 321 kts | 102° |
| 2026-05-05 13:27 | -23.45830 | -46.13000 | 11024 ft | 343 kts | 102° |
| 2026-05-05 13:27 | -23.46269 | -46.10395 | 11212 ft | 365 kts | 101° |
| 2026-05-05 13:27 | -23.46742 | -46.07628 | 11686 ft | 377 kts | 102° |
| 2026-05-05 13:28 | -23.47227 | -46.04797 | 12384 ft | 384 kts | 101° |
| 2026-05-05 13:28 | -23.47723 | -46.01926 | 13119 ft | 388 kts | 101° |
| 2026-05-05 13:28 | -23.48221 | -45.99035 | 13277 ft | 389 kts | 101° |
| 2026-05-05 13:28 | -23.48723 | -45.96118 | 13926 ft | 394 kts | 101° |
| 2026-05-05 13:29 | -23.49096 | -45.93160 | 14562 ft | 397 kts | 91° |
| 2026-05-05 13:29 | -23.48629 | -45.90180 | 15064 ft | 401 kts | 74° |
| 2026-05-05 13:29 | -23.47819 | -45.87266 | 15568 ft | 410 kts | 75° |
| 2026-05-05 13:29 | -23.47038 | -45.84271 | 16310 ft | 413 kts | 76° |
| 2026-05-05 13:30 | -23.46275 | -45.81240 | 16987 ft | 417 kts | 76° |
| 2026-05-05 13:30 | -23.45518 | -45.78173 | 17629 ft | 423 kts | 76° |
| 2026-05-05 13:30 | -23.44753 | -45.75060 | 18245 ft | 428 kts | 76° |
| 2026-05-05 13:30 | -23.43981 | -45.71906 | 18837 ft | 433 kts | 76° |
| 2026-05-05 13:31 | -23.43198 | -45.68721 | 19423 ft | 437 kts | 76° |
| 2026-05-05 13:31 | -23.42411 | -45.65520 | 20036 ft | 440 kts | 77° |
| 2026-05-05 13:31 | -23.41615 | -45.62294 | 20632 ft | 443 kts | 77° |
| 2026-05-05 13:31 | -23.40812 | -45.59039 | 21213 ft | 447 kts | 77° |
| 2026-05-05 13:32 | -23.40001 | -45.55753 | 21796 ft | 450 kts | 77° |
| 2026-05-05 13:32 | -23.39183 | -45.52445 | 22392 ft | 454 kts | 77° |
| 2026-05-05 13:32 | -23.38379 | -45.49104 | 22961 ft | 457 kts | 78° |
| 2026-05-05 13:32 | -23.37653 | -45.45725 | 23511 ft | 460 kts | 79° |
| 2026-05-05 13:33 | -23.36954 | -45.42313 | 24008 ft | 464 kts | 80° |
| 2026-05-05 13:33 | -23.36247 | -45.38873 | 24450 ft | 468 kts | 79° |
| 2026-05-05 13:33 | -23.35518 | -45.35402 | 24888 ft | 472 kts | 79° |
| 2026-05-05 13:33 | -23.34772 | -45.31912 | 25328 ft | 475 kts | 79° |
| 2026-05-05 13:34 | -23.34015 | -45.28397 | 25770 ft | 479 kts | 79° |
| 2026-05-05 13:34 | -23.33255 | -45.24865 | 26197 ft | 483 kts | 79° |
| 2026-05-05 13:34 | -23.32494 | -45.21339 | 26598 ft | 486 kts | 78° |
| 2026-05-05 13:34 | -23.31707 | -45.17695 | 27011 ft | 491 kts | 78° |
| 2026-05-05 13:35 | -23.31115 | -45.14954 | 27318 ft | 493 kts | 78° |
| 2026-05-05 13:35 | -23.30529 | -45.12242 | 27610 ft | 493 kts | 78° |
| 2026-05-05 13:35 | -23.29742 | -45.08598 | 27927 ft | 498 kts | 78° |
| 2026-05-05 13:35 | -23.29605 | -45.07966 | 27982 ft | 499 kts | 78° |
| 2026-05-05 13:36 | -23.29276 | -45.06446 | 28116 ft | 492 kts | 78° |
| 2026-05-05 13:36 | -23.28501 | -45.02875 | 28599 ft | 484 kts | 78° |
| 2026-05-05 13:36 | -23.27719 | -44.99264 | 28627 ft | 496 kts | 78° |
| 2026-05-05 13:36 | -23.26922 | -44.95583 | 28815 ft | 504 kts | 78° |
| 2026-05-05 13:37 | -23.26114 | -44.91846 | 29030 ft | 510 kts | 78° |
| 2026-05-05 13:37 | -23.25296 | -44.88082 | 29354 ft | 513 kts | 78° |
| 2026-05-05 13:37 | -23.24468 | -44.84301 | 29817 ft | 512 kts | 78° |
| 2026-05-05 13:37 | -23.23644 | -44.80535 | 30366 ft | 511 kts | 78° |
| 2026-05-05 13:38 | -23.22825 | -44.76785 | 30806 ft | 509 kts | 78° |
| 2026-05-05 13:38 | -23.22008 | -44.73043 | 31227 ft | 508 kts | 78° |
| 2026-05-05 13:38 | -23.21192 | -44.69309 | 31608 ft | 508 kts | 78° |
| 2026-05-05 13:38 | -23.20372 | -44.65567 | 31960 ft | 509 kts | 78° |
| 2026-05-05 13:39 | -23.19564 | -44.61878 | 32333 ft | 508 kts | 78° |
| 2026-05-05 13:39 | -23.18773 | -44.58136 | 32714 ft | 508 kts | 78° |
| 2026-05-05 13:39 | -23.18000 | -44.54390 | 33085 ft | 507 kts | 78° |
| 2026-05-05 13:39 | -23.17202 | -44.50654 | 33417 ft | 508 kts | 78° |
| 2026-05-05 13:40 | -23.16379 | -44.46919 | 33734 ft | 508 kts | 78° |
| 2026-05-05 13:40 | -23.15545 | -44.43190 | 34062 ft | 508 kts | 78° |
| 2026-05-05 13:40 | -23.14708 | -44.39456 | 34391 ft | 507 kts | 78° |
| 2026-05-05 13:40 | -23.13873 | -44.35727 | 34664 ft | 507 kts | 78° |
| 2026-05-05 13:41 | -23.13041 | -44.31997 | 34906 ft | 508 kts | 78° |
| 2026-05-05 13:41 | -23.12210 | -44.28261 | 35111 ft | 510 kts | 78° |
| 2026-05-05 13:41 | -23.10543 | -44.20769 | 35194 ft | 513 kts | 78° |
| 2026-05-05 13:42 | -23.08879 | -44.13312 | 35028 ft | 503 kts | 78° |
| 2026-05-05 13:42 | -23.08051 | -44.09604 | 34759 ft | 504 kts | 78° |
| 2026-05-05 13:42 | -23.07221 | -44.05894 | 34466 ft | 505 kts | 78° |
| 2026-05-05 13:43 | -23.06399 | -44.02221 | 34183 ft | 506 kts | 78° |
| 2026-05-05 13:43 | -23.05566 | -43.98507 | 33861 ft | 507 kts | 78° |
| 2026-05-05 13:43 | -23.04732 | -43.94794 | 33541 ft | 507 kts | 78° |
| 2026-05-05 13:43 | -23.03897 | -43.91077 | 33270 ft | 506 kts | 77° |
| 2026-05-05 13:44 | -23.02222 | -43.83639 | 33479 ft | 510 kts | 77° |
| 2026-05-05 13:44 | -23.01377 | -43.79891 | 33822 ft | 510 kts | 77° |
| 2026-05-05 13:44 | -23.00552 | -43.76152 | 34192 ft | 507 kts | 80° |
| 2026-05-05 13:45 | -23.00158 | -43.72364 | 34413 ft | 505 kts | 92° |
| 2026-05-05 13:45 | -23.00394 | -43.68572 | 34651 ft | 502 kts | 101° |
| 2026-05-05 13:45 | -23.01141 | -43.64891 | 34896 ft | 498 kts | 112° |
| 2026-05-05 13:45 | -23.02339 | -43.61381 | 35091 ft | 496 kts | 114° |
| 2026-05-05 13:46 | -23.04853 | -43.54371 | 35195 ft | 499 kts | 114° |
| 2026-05-05 13:46 | -23.07331 | -43.47346 | 35209 ft | 497 kts | 114° |
| 2026-05-05 13:47 | -23.09754 | -43.40329 | 35216 ft | 496 kts | 114° |
| 2026-05-05 13:47 | -23.12146 | -43.33338 | 35215 ft | 497 kts | 114° |
| 2026-05-05 13:48 | -23.14548 | -43.26302 | 35211 ft | 497 kts | 114° |
| 2026-05-05 13:48 | -23.16950 | -43.19262 | 35210 ft | 497 kts | 114° |
| 2026-05-05 13:49 | -23.19351 | -43.12217 | 35211 ft | 497 kts | 114° |
| 2026-05-05 13:49 | -23.21749 | -43.05170 | 35210 ft | 497 kts | 113° |
| 2026-05-05 13:50 | -23.24144 | -42.98120 | 35212 ft | 497 kts | 113° |
| 2026-05-05 13:50 | -23.26535 | -42.91069 | 35211 ft | 497 kts | 113° |
| 2026-05-05 13:51 | -23.28927 | -42.84005 | 35214 ft | 497 kts | 113° |
| 2026-05-05 13:51 | -23.31314 | -42.76944 | 35220 ft | 497 kts | 113° |
| 2026-05-05 13:52 | -23.33699 | -42.69875 | 35215 ft | 498 kts | 113° |
| 2026-05-05 13:52 | -23.36081 | -42.62802 | 35211 ft | 498 kts | 113° |
| 2026-05-05 13:53 | -23.38460 | -42.55726 | 35220 ft | 498 kts | 113° |
| 2026-05-05 13:53 | -23.40821 | -42.48694 | 35215 ft | 498 kts | 113° |
| 2026-05-05 13:54 | -23.43192 | -42.41619 | 35217 ft | 498 kts | 113° |
| 2026-05-05 13:54 | -23.45564 | -42.34531 | 35224 ft | 498 kts | 113° |
| 2026-05-05 13:55 | -23.47933 | -42.27438 | 35222 ft | 498 kts | 113° |
| 2026-05-05 13:55 | -23.50298 | -42.20345 | 35225 ft | 498 kts | 113° |
| 2026-05-05 13:56 | -23.52657 | -42.13257 | 35225 ft | 498 kts | 113° |
| 2026-05-05 13:56 | -23.55012 | -42.06169 | 35229 ft | 497 kts | 113° |
| 2026-05-05 13:57 | -23.57365 | -41.99077 | 35227 ft | 498 kts | 113° |
| 2026-05-05 13:57 | -23.59317 | -41.93180 | 35228 ft | 498 kts | 113° |
| 2026-05-05 13:58 | -23.62047 | -41.84924 | 35232 ft | 498 kts | 113° |
| 2026-05-05 13:58 | -23.64392 | -41.77819 | 35231 ft | 498 kts | 113° |
| 2026-05-05 13:59 | -23.67524 | -41.68308 | 35234 ft | 498 kts | 113° |
| 2026-05-05 14:00 | -23.71015 | -41.57680 | 35235 ft | 498 kts | 113° |
| 2026-05-05 14:00 | -23.73350 | -41.50557 | 35240 ft | 498 kts | 113° |
| 2026-05-05 14:01 | -23.75682 | -41.43430 | 35235 ft | 499 kts | 113° |
| 2026-05-05 14:01 | -23.78012 | -41.36297 | 35234 ft | 499 kts | 113° |
| 2026-05-05 14:02 | -23.80339 | -41.29161 | 35234 ft | 499 kts | 113° |
| 2026-05-05 14:02 | -23.82661 | -41.22024 | 35236 ft | 499 kts | 113° |
| 2026-05-05 14:03 | -23.84981 | -41.14884 | 35237 ft | 499 kts | 113° |
| 2026-05-05 14:03 | -23.87296 | -41.07746 | 35236 ft | 499 kts | 113° |
| 2026-05-05 14:04 | -23.89595 | -41.00647 | 35239 ft | 499 kts | 113° |
| 2026-05-05 14:04 | -23.91905 | -40.93497 | 35239 ft | 498 kts | 113° |
| 2026-05-05 14:05 | -23.94212 | -40.86347 | 35243 ft | 499 kts | 113° |
| 2026-05-05 14:05 | -23.96516 | -40.79191 | 35244 ft | 499 kts | 113° |
| 2026-05-05 14:06 | -23.98817 | -40.72033 | 35245 ft | 498 kts | 113° |
| 2026-05-05 14:06 | -24.01112 | -40.64880 | 35250 ft | 499 kts | 113° |
| 2026-05-05 14:07 | -24.03405 | -40.57720 | 35244 ft | 499 kts | 112° |
| 2026-05-05 14:07 | -24.05696 | -40.50556 | 35248 ft | 499 kts | 112° |
| 2026-05-05 14:08 | -24.07982 | -40.43389 | 35254 ft | 499 kts | 112° |
| 2026-05-05 14:08 | -24.10249 | -40.36273 | 35247 ft | 499 kts | 112° |
| 2026-05-05 14:09 | -24.12530 | -40.29101 | 35247 ft | 499 kts | 112° |
| 2026-05-05 14:09 | -24.15015 | -40.22019 | 35255 ft | 497 kts | 116° |
| 2026-05-05 14:10 | -24.17676 | -40.15035 | 35256 ft | 497 kts | 116° |
| 2026-05-05 14:10 | -24.20345 | -40.08047 | 35248 ft | 497 kts | 116° |
| 2026-05-05 14:11 | -24.22989 | -40.01045 | 35257 ft | 497 kts | 116° |
| 2026-05-05 14:11 | -24.25619 | -39.94030 | 35249 ft | 498 kts | 116° |
| 2026-05-05 14:12 | -24.28245 | -39.87009 | 35251 ft | 498 kts | 116° |
| 2026-05-05 14:12 | -24.30865 | -39.79994 | 35255 ft | 498 kts | 116° |
| 2026-05-05 14:13 | -24.33486 | -39.72969 | 35252 ft | 498 kts | 116° |
| 2026-05-05 14:13 | -24.36084 | -39.65993 | 35253 ft | 498 kts | 116° |
| 2026-05-05 14:14 | -24.38700 | -39.58957 | 35253 ft | 498 kts | 116° |
| 2026-05-05 14:14 | -24.41312 | -39.51923 | 35255 ft | 498 kts | 116° |
| 2026-05-05 14:15 | -24.43922 | -39.44880 | 35255 ft | 498 kts | 116° |
| 2026-05-05 14:15 | -24.46527 | -39.37839 | 35256 ft | 498 kts | 116° |
| 2026-05-05 14:16 | -24.49130 | -39.30793 | 35256 ft | 498 kts | 116° |
| 2026-05-05 14:16 | -24.51729 | -39.23746 | 35254 ft | 498 kts | 115° |
| 2026-05-05 14:17 | -24.54309 | -39.16738 | 35257 ft | 498 kts | 115° |
| 2026-05-05 14:17 | -24.56901 | -39.09685 | 35265 ft | 498 kts | 115° |
| 2026-05-05 14:18 | -24.59491 | -39.02627 | 35257 ft | 498 kts | 115° |
| 2026-05-05 14:18 | -24.62077 | -38.95567 | 35260 ft | 498 kts | 115° |
| 2026-05-05 14:19 | -24.64661 | -38.88502 | 35260 ft | 498 kts | 115° |
| 2026-05-05 14:19 | -24.67243 | -38.81427 | 35262 ft | 498 kts | 115° |
| 2026-05-05 14:20 | -24.69823 | -38.74348 | 35260 ft | 498 kts | 115° |
| 2026-05-05 14:20 | -24.72383 | -38.67314 | 35262 ft | 498 kts | 115° |
| 2026-05-05 14:21 | -24.74957 | -38.60227 | 35261 ft | 499 kts | 115° |
| 2026-05-05 14:21 | -24.77527 | -38.53138 | 35261 ft | 499 kts | 115° |
| 2026-05-05 14:22 | -24.80094 | -38.46045 | 35258 ft | 499 kts | 115° |
| 2026-05-05 14:22 | -24.82657 | -38.38953 | 35265 ft | 499 kts | 115° |
| 2026-05-05 14:23 | -24.85220 | -38.31850 | 35252 ft | 499 kts | 115° |
| 2026-05-05 14:23 | -24.87779 | -38.24742 | 35263 ft | 499 kts | 115° |
| 2026-05-05 14:24 | -24.90319 | -38.17677 | 35270 ft | 499 kts | 115° |
| 2026-05-05 14:24 | -24.92877 | -38.10549 | 35253 ft | 500 kts | 115° |
| 2026-05-05 14:25 | -24.95431 | -38.03420 | 35255 ft | 500 kts | 115° |
| 2026-05-05 14:25 | -24.97983 | -37.96283 | 35257 ft | 500 kts | 115° |
| 2026-05-05 14:26 | -25.00531 | -37.89147 | 35260 ft | 501 kts | 115° |
| 2026-05-05 14:26 | -25.03081 | -37.81991 | 35253 ft | 501 kts | 115° |
| 2026-05-05 14:27 | -25.05625 | -37.74838 | 35259 ft | 501 kts | 115° |
| 2026-05-05 14:27 | -25.08150 | -37.67730 | 35260 ft | 501 kts | 115° |
| 2026-05-05 14:28 | -25.10692 | -37.60559 | 35266 ft | 502 kts | 115° |
| 2026-05-05 14:28 | -25.13230 | -37.53386 | 35263 ft | 502 kts | 115° |
| 2026-05-05 14:29 | -25.15764 | -37.46213 | 35271 ft | 502 kts | 115° |
| 2026-05-05 14:29 | -25.18301 | -37.39018 | 35263 ft | 503 kts | 115° |
| 2026-05-05 14:30 | -25.20838 | -37.31809 | 35264 ft | 503 kts | 115° |
| 2026-05-05 14:30 | -25.23372 | -37.24598 | 35266 ft | 503 kts | 114° |
| 2026-05-05 14:31 | -25.25884 | -37.17435 | 35266 ft | 504 kts | 114° |
| 2026-05-05 14:31 | -25.28417 | -37.10199 | 35264 ft | 505 kts | 114° |
| 2026-05-05 14:32 | -25.30945 | -37.02964 | 35261 ft | 504 kts | 114° |
| 2026-05-05 14:32 | -25.33470 | -36.95727 | 35267 ft | 505 kts | 114° |
| 2026-05-05 14:33 | -25.35995 | -36.88474 | 35270 ft | 506 kts | 114° |
| 2026-05-05 14:33 | -25.38516 | -36.81222 | 35264 ft | 505 kts | 114° |
| 2026-05-05 14:34 | -25.41033 | -36.73964 | 35277 ft | 505 kts | 114° |
| 2026-05-05 14:34 | -25.43549 | -36.66698 | 35269 ft | 506 kts | 114° |
| 2026-05-05 14:35 | -25.46064 | -36.59423 | 35265 ft | 506 kts | 114° |
| 2026-05-05 14:35 | -25.48572 | -36.52154 | 35268 ft | 506 kts | 114° |
| 2026-05-05 14:36 | -25.51061 | -36.44925 | 35270 ft | 506 kts | 114° |
| 2026-05-05 14:36 | -25.53563 | -36.37645 | 35286 ft | 506 kts | 114° |
| 2026-05-05 14:37 | -25.56060 | -36.30368 | 35265 ft | 505 kts | 114° |
| 2026-05-05 14:37 | -25.58552 | -36.23092 | 35272 ft | 506 kts | 114° |
| 2026-05-05 14:38 | -25.61046 | -36.15795 | 35271 ft | 506 kts | 114° |
| 2026-05-05 14:38 | -25.63537 | -36.08494 | 35274 ft | 506 kts | 114° |
| 2026-05-05 14:39 | -25.66022 | -36.01196 | 35268 ft | 506 kts | 114° |
| 2026-05-05 14:39 | -25.68508 | -35.93883 | 35261 ft | 507 kts | 113° |
| 2026-05-05 14:40 | -25.70990 | -35.86567 | 35276 ft | 507 kts | 113° |
| 2026-05-05 14:40 | -25.73469 | -35.79246 | 35273 ft | 507 kts | 113° |
| 2026-05-05 14:41 | -25.75925 | -35.71978 | 35274 ft | 507 kts | 113° |
| 2026-05-05 14:41 | -25.78402 | -35.64638 | 35274 ft | 508 kts | 113° |
| 2026-05-05 14:42 | -25.80875 | -35.57290 | 35272 ft | 508 kts | 113° |
| 2026-05-05 14:42 | -25.83344 | -35.49942 | 35281 ft | 508 kts | 113° |
| 2026-05-05 14:43 | -25.85816 | -35.42573 | 35277 ft | 510 kts | 113° |
| 2026-05-05 14:43 | -25.88288 | -35.35189 | 35274 ft | 510 kts | 113° |
| 2026-05-05 14:44 | -25.90754 | -35.27808 | 35275 ft | 509 kts | 113° |
| 2026-05-05 14:44 | -25.93218 | -35.20420 | 35283 ft | 511 kts | 112° |
| 2026-05-05 14:45 | -25.95683 | -35.13011 | 35278 ft | 512 kts | 112° |
| 2026-05-05 14:45 | -25.98133 | -35.05634 | 35273 ft | 511 kts | 112° |
| 2026-05-05 14:46 | -26.00477 | -34.98174 | 35272 ft | 512 kts | 107° |
| 2026-05-05 14:46 | -26.02180 | -34.90447 | 35283 ft | 516 kts | 105° |
| 2026-05-05 14:47 | -26.03814 | -34.82687 | 35275 ft | 515 kts | 105° |
| 2026-05-05 14:47 | -26.05470 | -34.74935 | 35271 ft | 514 kts | 105° |
| 2026-05-05 14:48 | -26.07148 | -34.67184 | 35280 ft | 517 kts | 105° |
| 2026-05-05 14:48 | -26.08835 | -34.59401 | 35274 ft | 518 kts | 105° |
| 2026-05-05 14:49 | -26.10506 | -34.51665 | 35273 ft | 517 kts | 105° |
| 2026-05-05 14:49 | -26.12182 | -34.43884 | 35270 ft | 519 kts | 104° |
| 2026-05-05 14:50 | -26.13580 | -34.37368 | 35277 ft | 521 kts | 104° |
| 2026-05-05 14:50 | -26.15230 | -34.29659 | 35265 ft | 520 kts | 104° |
| 2026-05-05 14:51 | -26.16869 | -34.21975 | 35271 ft | 514 kts | 104° |
| 2026-05-05 14:51 | -26.18540 | -34.14136 | 35284 ft | 525 kts | 104° |
| 2026-05-05 14:52 | -26.20219 | -34.06223 | 35268 ft | 524 kts | 104° |
| 2026-05-05 14:52 | -26.21885 | -33.98351 | 35269 ft | 521 kts | 104° |
| 2026-05-05 14:53 | -26.23546 | -33.90483 | 35283 ft | 522 kts | 104° |
| 2026-05-05 14:53 | -26.25206 | -33.82598 | 35272 ft | 523 kts | 104° |
| 2026-05-05 14:54 | -26.26861 | -33.74709 | 35271 ft | 522 kts | 104° |
| 2026-05-05 14:54 | -26.28511 | -33.66824 | 35272 ft | 524 kts | 103° |
| 2026-05-05 14:55 | -26.30156 | -33.58942 | 35283 ft | 526 kts | 103° |
| 2026-05-05 14:55 | -26.31808 | -33.51003 | 35269 ft | 525 kts | 103° |
| 2026-05-05 14:56 | -26.33454 | -33.43067 | 35277 ft | 525 kts | 103° |
| 2026-05-05 14:56 | -26.35097 | -33.35127 | 35273 ft | 526 kts | 102° |
| 2026-05-05 14:57 | -26.36734 | -33.27183 | 35279 ft | 526 kts | 102° |
| 2026-05-05 14:57 | -26.38367 | -33.19240 | 35277 ft | 526 kts | 102° |
| 2026-05-05 14:58 | -26.39998 | -33.11287 | 35273 ft | 526 kts | 102° |
| 2026-05-05 14:58 | -26.41624 | -33.03329 | 35278 ft | 526 kts | 102° |
| 2026-05-05 14:59 | -26.43235 | -32.95426 | 35276 ft | 526 kts | 102° |
| 2026-05-05 14:59 | -26.44852 | -32.87464 | 35282 ft | 526 kts | 102° |
| 2026-05-05 15:00 | -26.46205 | -32.80785 | 35283 ft | 527 kts | 102° |
| 2026-05-05 15:00 | -26.48082 | -32.71492 | 35285 ft | 528 kts | 102° |
| 2026-05-05 15:01 | -26.49691 | -32.63502 | 35278 ft | 527 kts | 102° |
| 2026-05-05 15:01 | -26.51295 | -32.55515 | 35277 ft | 528 kts | 102° |
| 2026-05-05 15:02 | -26.52896 | -32.47509 | 35281 ft | 528 kts | 102° |
| 2026-05-05 15:02 | -26.54495 | -32.39494 | 35276 ft | 528 kts | 102° |
| 2026-05-05 15:03 | -26.56089 | -32.31480 | 35279 ft | 528 kts | 101° |
| 2026-05-05 15:03 | -26.57679 | -32.23461 | 35280 ft | 529 kts | 101° |
| 2026-05-05 15:04 | -26.59268 | -32.15422 | 35282 ft | 529 kts | 101° |
| 2026-05-05 15:04 | -26.60850 | -32.07390 | 35286 ft | 529 kts | 101° |
| 2026-05-05 15:05 | -26.63208 | -31.95377 | 35281 ft | 530 kts | 101° |
| 2026-05-05 15:06 | -26.64782 | -31.87324 | 35279 ft | 530 kts | 101° |
| 2026-05-05 15:06 | -26.66352 | -31.79268 | 35285 ft | 530 kts | 101° |
| 2026-05-05 15:07 | -26.67918 | -31.71206 | 35281 ft | 532 kts | 101° |
| 2026-05-05 15:07 | -26.69483 | -31.63126 | 35282 ft | 532 kts | 101° |
| 2026-05-05 15:08 | -26.71043 | -31.55042 | 35282 ft | 531 kts | 101° |
| 2026-05-05 15:08 | -26.72599 | -31.46957 | 35289 ft | 532 kts | 101° |
| 2026-05-05 15:09 | -26.74145 | -31.38893 | 35289 ft | 533 kts | 101° |
| 2026-05-05 15:09 | -26.75693 | -31.30795 | 35287 ft | 532 kts | 101° |
| 2026-05-05 15:10 | -26.77238 | -31.22688 | 35283 ft | 532 kts | 101° |
| 2026-05-05 15:10 | -26.78778 | -31.14581 | 35282 ft | 532 kts | 101° |
| 2026-05-05 15:11 | -26.80312 | -31.06476 | 35285 ft | 532 kts | 101° |
| 2026-05-05 15:11 | -26.81842 | -30.98369 | 35286 ft | 532 kts | 100° |
| 2026-05-05 15:12 | -26.83368 | -30.90255 | 35288 ft | 533 kts | 100° |
| 2026-05-05 15:12 | -26.84892 | -30.82122 | 35288 ft | 533 kts | 100° |
| 2026-05-05 15:13 | -26.86410 | -30.73994 | 35283 ft | 533 kts | 100° |
| 2026-05-05 15:13 | -26.87923 | -30.65869 | 35282 ft | 533 kts | 100° |
| 2026-05-05 15:14 | -26.89434 | -30.57728 | 35287 ft | 534 kts | 100° |
| 2026-05-05 15:14 | -26.90942 | -30.49575 | 35281 ft | 534 kts | 100° |
| 2026-05-05 15:15 | -26.92433 | -30.41486 | 35283 ft | 533 kts | 100° |
| 2026-05-05 15:15 | -26.93930 | -30.33335 | 35283 ft | 533 kts | 100° |
| 2026-05-05 15:16 | -26.95420 | -30.25197 | 35282 ft | 533 kts | 100° |
| 2026-05-05 15:16 | -26.96908 | -30.17042 | 35283 ft | 533 kts | 100° |
| 2026-05-05 15:17 | -26.98390 | -30.08889 | 35279 ft | 533 kts | 100° |
| 2026-05-05 15:17 | -26.99867 | -30.00741 | 35283 ft | 533 kts | 100° |
| 2026-05-05 15:18 | -27.01493 | -29.92625 | 35284 ft | 534 kts | 103° |
| 2026-05-05 15:18 | -27.03319 | -29.84548 | 35286 ft | 534 kts | 103° |
| 2026-05-05 15:19 | -27.05142 | -29.76468 | 35282 ft | 534 kts | 103° |
| 2026-05-05 15:19 | -27.06921 | -29.68371 | 35289 ft | 535 kts | 102° |
| 2026-05-05 15:20 | -27.08666 | -29.60313 | 35284 ft | 534 kts | 102° |
| 2026-05-05 15:20 | -27.10414 | -29.52210 | 35299 ft | 534 kts | 102° |
| 2026-05-05 15:21 | -27.12164 | -29.44086 | 35290 ft | 535 kts | 102° |
| 2026-05-05 15:21 | -27.13910 | -29.35962 | 35287 ft | 535 kts | 102° |
| 2026-05-05 15:22 | -27.15652 | -29.27839 | 35286 ft | 535 kts | 102° |
| 2026-05-05 15:22 | -27.16102 | -29.25735 | 35287 ft | 535 kts | 102° |
| 2026-05-05 15:22 | -27.16698 | -29.22947 | 35290 ft | 523 kts | 102° |
| 2026-05-05 15:23 | -27.17544 | -29.18987 | 35306 ft | 523 kts | 102° |
| 2026-05-05 15:23 | -27.19258 | -29.10935 | 35300 ft | 536 kts | 102° |
| 2026-05-05 15:24 | -27.20998 | -29.02738 | 35287 ft | 540 kts | 102° |
| 2026-05-05 15:24 | -27.22737 | -28.94525 | 35288 ft | 539 kts | 102° |
| 2026-05-05 15:25 | -27.24467 | -28.86333 | 35277 ft | 538 kts | 102° |
| 2026-05-05 15:25 | -27.26178 | -28.78203 | 35278 ft | 537 kts | 102° |
| 2026-05-05 15:26 | -27.27890 | -28.70043 | 35285 ft | 536 kts | 102° |
| 2026-05-05 15:26 | -27.29594 | -28.61893 | 35281 ft | 535 kts | 102° |
| 2026-05-05 15:27 | -27.31289 | -28.53760 | 35280 ft | 534 kts | 102° |
| 2026-05-05 15:27 | -27.32981 | -28.45622 | 35280 ft | 534 kts | 102° |
| 2026-05-05 15:28 | -27.34667 | -28.37483 | 35284 ft | 534 kts | 102° |
| 2026-05-05 15:28 | -27.36349 | -28.29339 | 35283 ft | 535 kts | 102° |
| 2026-05-05 15:29 | -27.38030 | -28.21176 | 35278 ft | 535 kts | 102° |
| 2026-05-05 15:29 | -27.39706 | -28.13014 | 35282 ft | 536 kts | 102° |
| 2026-05-05 15:30 | -27.41379 | -28.04838 | 35282 ft | 536 kts | 102° |
| 2026-05-05 15:30 | -27.43036 | -27.96714 | 35283 ft | 536 kts | 102° |
| 2026-05-05 15:31 | -27.44701 | -27.88527 | 35283 ft | 536 kts | 102° |
| 2026-05-05 15:31 | -27.46361 | -27.80338 | 35282 ft | 536 kts | 102° |
| 2026-05-05 15:32 | -27.48016 | -27.72147 | 35284 ft | 536 kts | 102° |
| 2026-05-05 15:32 | -27.49664 | -27.63963 | 35282 ft | 535 kts | 102° |
| 2026-05-05 15:33 | -27.51307 | -27.55780 | 35281 ft | 535 kts | 102° |
| 2026-05-05 15:33 | -27.52942 | -27.47610 | 35283 ft | 535 kts | 102° |
| 2026-05-05 15:34 | -27.54560 | -27.39496 | 35283 ft | 534 kts | 102° |
| 2026-05-05 15:34 | -27.56185 | -27.31326 | 35282 ft | 534 kts | 102° |
| 2026-05-05 15:35 | -27.57803 | -27.23161 | 35286 ft | 534 kts | 102° |
| 2026-05-05 15:35 | -27.59417 | -27.14988 | 35289 ft | 534 kts | 102° |
| 2026-05-05 15:36 | -27.61026 | -27.06817 | 35282 ft | 534 kts | 102° |
| 2026-05-05 15:36 | -27.62359 | -27.00027 | 35283 ft | 533 kts | 102° |
| 2026-05-05 15:37 | -27.63958 | -26.91857 | 35285 ft | 533 kts | 102° |
| 2026-05-05 15:37 | -27.65554 | -26.83677 | 35285 ft | 534 kts | 102° |
| 2026-05-05 15:38 | -27.67144 | -26.75497 | 35283 ft | 534 kts | 101° |
| 2026-05-05 15:38 | -27.68731 | -26.67312 | 35282 ft | 534 kts | 101° |
| 2026-05-05 15:39 | -27.70312 | -26.59125 | 35283 ft | 534 kts | 101° |
| 2026-05-05 15:39 | -27.71888 | -26.50939 | 35283 ft | 534 kts | 101° |
| 2026-05-05 15:40 | -27.73461 | -26.42741 | 35285 ft | 534 kts | 101° |
| 2026-05-05 15:40 | -27.75028 | -26.34547 | 35285 ft | 534 kts | 101° |
| 2026-05-05 15:41 | -27.76592 | -26.26339 | 35286 ft | 534 kts | 101° |
| 2026-05-05 15:41 | -27.78149 | -26.18139 | 35283 ft | 534 kts | 101° |
| 2026-05-05 15:42 | -27.79694 | -26.09980 | 35289 ft | 534 kts | 101° |
| 2026-05-05 15:42 | -27.81244 | -26.01762 | 35289 ft | 534 kts | 101° |
| 2026-05-05 15:43 | -27.82787 | -25.93551 | 35291 ft | 534 kts | 101° |
| 2026-05-05 15:43 | -27.84327 | -25.85335 | 35288 ft | 535 kts | 101° |
| 2026-05-05 15:44 | -27.85856 | -25.77144 | 35286 ft | 535 kts | 101° |
| 2026-05-05 15:44 | -27.87392 | -25.68889 | 35286 ft | 535 kts | 101° |
| 2026-05-05 15:45 | -27.88919 | -25.60655 | 35286 ft | 536 kts | 100° |
| 2026-05-05 15:45 | -27.90443 | -25.52403 | 35285 ft | 536 kts | 100° |
| 2026-05-05 15:46 | -27.91965 | -25.44138 | 35287 ft | 537 kts | 100° |
| 2026-05-05 15:46 | -27.93480 | -25.35878 | 35289 ft | 537 kts | 100° |
| 2026-05-05 15:47 | -27.94985 | -25.27648 | 35291 ft | 537 kts | 100° |
| 2026-05-05 15:47 | -27.96494 | -25.19365 | 35287 ft | 537 kts | 100° |
| 2026-05-05 15:48 | -27.97997 | -25.11084 | 35300 ft | 538 kts | 100° |
| 2026-05-05 15:48 | -27.99496 | -25.02800 | 35290 ft | 538 kts | 100° |
| 2026-05-05 15:49 | -28.01081 | -24.94516 | 35283 ft | 538 kts | 102° |
| 2026-05-05 15:49 | -28.02917 | -24.86308 | 35290 ft | 538 kts | 103° |
| 2026-05-05 15:50 | -28.04785 | -24.78104 | 35290 ft | 538 kts | 103° |
| 2026-05-05 15:50 | -28.06608 | -24.69877 | 35288 ft | 539 kts | 102° |
| 2026-05-05 15:51 | -28.08402 | -24.61627 | 35287 ft | 540 kts | 102° |
| 2026-05-05 15:51 | -28.10187 | -24.53366 | 35297 ft | 540 kts | 102° |
| 2026-05-05 15:52 | -28.11971 | -24.45095 | 35288 ft | 541 kts | 102° |
| 2026-05-05 15:52 | -28.13756 | -24.36809 | 35285 ft | 542 kts | 102° |
| 2026-05-05 15:53 | -28.15529 | -24.28559 | 35288 ft | 542 kts | 102° |
| 2026-05-05 15:53 | -28.17309 | -24.20247 | 35290 ft | 543 kts | 102° |
| 2026-05-05 15:54 | -28.19086 | -24.11922 | 35291 ft | 543 kts | 102° |
| 2026-05-05 15:54 | -28.20859 | -24.03587 | 35283 ft | 544 kts | 102° |
| 2026-05-05 15:55 | -28.22631 | -23.95232 | 35288 ft | 545 kts | 102° |
| 2026-05-05 15:55 | -28.24398 | -23.86874 | 35290 ft | 545 kts | 101° |
| 2026-05-05 15:56 | -28.26161 | -23.78503 | 35288 ft | 546 kts | 101° |
| 2026-05-05 15:56 | -28.27912 | -23.70171 | 35278 ft | 547 kts | 101° |
| 2026-05-05 15:57 | -28.29671 | -23.61768 | 35293 ft | 547 kts | 101° |
| 2026-05-05 15:57 | -28.31426 | -23.53355 | 35291 ft | 548 kts | 101° |
| 2026-05-05 15:58 | -28.33178 | -23.44932 | 35290 ft | 549 kts | 101° |
| 2026-05-05 15:58 | -28.34927 | -23.36496 | 35283 ft | 549 kts | 101° |
| 2026-05-05 15:59 | -28.36673 | -23.28048 | 35290 ft | 550 kts | 101° |
| 2026-05-05 15:59 | -28.38415 | -23.19588 | 35288 ft | 550 kts | 101° |
| 2026-05-05 16:00 | -28.40153 | -23.11121 | 35285 ft | 550 kts | 101° |
| 2026-05-05 16:00 | -28.41886 | -23.02651 | 35291 ft | 550 kts | 101° |
| 2026-05-05 16:01 | -28.43616 | -22.94167 | 35292 ft | 551 kts | 101° |
| 2026-05-05 16:01 | -28.45328 | -22.85740 | 35281 ft | 551 kts | 100° |
| 2026-05-05 16:02 | -28.47047 | -22.77256 | 35284 ft | 551 kts | 100° |
| 2026-05-05 16:02 | -28.48762 | -22.68760 | 35286 ft | 551 kts | 100° |
| 2026-05-05 16:03 | -28.50470 | -22.60267 | 35289 ft | 551 kts | 100° |
| 2026-05-05 16:03 | -28.52174 | -22.51765 | 35286 ft | 552 kts | 100° |
| 2026-05-05 16:04 | -28.53875 | -22.43252 | 35278 ft | 552 kts | 99° |
| 2026-05-05 16:04 | -28.55570 | -22.34736 | 35286 ft | 552 kts | 99° |
| 2026-05-05 16:05 | -28.57262 | -22.26207 | 35288 ft | 553 kts | 99° |
| 2026-05-05 16:05 | -28.58949 | -22.17674 | 35284 ft | 553 kts | 99° |
| 2026-05-05 16:06 | -28.60623 | -22.09178 | 35285 ft | 553 kts | 99° |
| 2026-05-05 16:06 | -28.62300 | -22.00639 | 35289 ft | 553 kts | 99° |
| 2026-05-05 16:07 | -28.63973 | -21.92088 | 35288 ft | 553 kts | 99° |
| 2026-05-05 16:07 | -28.65640 | -21.83538 | 35292 ft | 553 kts | 99° |
| 2026-05-05 16:08 | -28.67301 | -21.74987 | 35281 ft | 553 kts | 99° |
| 2026-05-05 16:08 | -28.68957 | -21.66433 | 35291 ft | 553 kts | 99° |
| 2026-05-05 16:09 | -28.70608 | -21.57869 | 35290 ft | 554 kts | 99° |
| 2026-05-05 16:09 | -28.72256 | -21.49295 | 35288 ft | 554 kts | 99° |
| 2026-05-05 16:10 | -28.73901 | -21.40708 | 35287 ft | 555 kts | 99° |
| 2026-05-05 16:10 | -28.75534 | -21.32148 | 35289 ft | 557 kts | 99° |
| 2026-05-05 16:11 | -28.77174 | -21.23518 | 35290 ft | 558 kts | 98° |
| 2026-05-05 16:12 | -28.80450 | -21.06196 | 35287 ft | 559 kts | 98° |
| 2026-05-05 16:13 | -28.84523 | -20.84484 | 35299 ft | 561 kts | 98° |
| 2026-05-05 16:13 | -28.86144 | -20.75770 | 35295 ft | 562 kts | 98° |
| 2026-05-05 16:14 | -28.89376 | -20.58319 | 35295 ft | 562 kts | 98° |
| 2026-05-05 16:15 | -28.92576 | -20.40915 | 35292 ft | 561 kts | 98° |
| 2026-05-05 16:16 | -28.95753 | -20.23502 | 35292 ft | 559 kts | 98° |
| 2026-05-05 16:17 | -28.98113 | -20.10476 | 35294 ft | 557 kts | 98° |
| 2026-05-05 16:18 | -29.00469 | -19.97493 | 35284 ft | 555 kts | 99° |
| 2026-05-05 16:19 | -29.03286 | -19.84674 | 35292 ft | 554 kts | 102° |
| 2026-05-05 16:19 | -29.06177 | -19.71901 | 35298 ft | 552 kts | 101° |
| 2026-05-05 16:20 | -29.09876 | -19.54909 | 35305 ft | 553 kts | 101° |
| 2026-05-05 16:22 | -29.14480 | -19.33578 | 35305 ft | 552 kts | 101° |
| 2026-05-05 16:23 | -29.18138 | -19.16530 | 35305 ft | 550 kts | 101° |
| 2026-05-05 16:23 | -29.20856 | -19.03784 | 35305 ft | 549 kts | 101° |
| 2026-05-05 16:24 | -29.22647 | -18.95351 | 35302 ft | 548 kts | 101° |
| 2026-05-05 16:25 | -29.25333 | -18.82652 | 35307 ft | 547 kts | 101° |
| 2026-05-05 16:25 | -29.27715 | -18.71335 | 35307 ft | 546 kts | 101° |
| 2026-05-05 16:26 | -29.31248 | -18.54455 | 35315 ft | 547 kts | 101° |
| 2026-05-05 16:27 | -29.33014 | -18.45977 | 35307 ft | 547 kts | 101° |
| 2026-05-05 16:27 | -29.34779 | -18.37469 | 35310 ft | 549 kts | 101° |
| 2026-05-05 16:28 | -29.36545 | -18.28932 | 35322 ft | 552 kts | 101° |
| 2026-05-05 16:28 | -29.38318 | -18.20333 | 35323 ft | 555 kts | 101° |
| 2026-05-05 16:29 | -29.40093 | -18.11694 | 35319 ft | 557 kts | 101° |
| 2026-05-05 16:29 | -29.41863 | -18.03048 | 35316 ft | 557 kts | 101° |
| 2026-05-05 16:30 | -29.43627 | -17.94404 | 35315 ft | 556 kts | 101° |
| 2026-05-05 16:30 | -29.45371 | -17.85830 | 35310 ft | 554 kts | 101° |
| 2026-05-05 16:31 | -29.47116 | -17.77212 | 35312 ft | 555 kts | 101° |
| 2026-05-05 16:31 | -29.48861 | -17.68567 | 35336 ft | 555 kts | 101° |
| 2026-05-05 16:32 | -29.50599 | -17.59921 | 35306 ft | 557 kts | 101° |
| 2026-05-05 16:32 | -29.52337 | -17.51252 | 35314 ft | 557 kts | 101° |
| 2026-05-05 16:33 | -29.54071 | -17.42573 | 35322 ft | 557 kts | 101° |
| 2026-05-05 16:33 | -29.55798 | -17.33895 | 35313 ft | 557 kts | 101° |
| 2026-05-05 16:34 | -29.57518 | -17.25219 | 35323 ft | 556 kts | 101° |
| 2026-05-05 16:34 | -29.59123 | -17.17099 | 35309 ft | 555 kts | 101° |
| 2026-05-05 16:35 | -29.60813 | -17.08515 | 35322 ft | 554 kts | 101° |
| 2026-05-05 16:35 | -29.62506 | -16.99886 | 35321 ft | 553 kts | 101° |
| 2026-05-05 16:36 | -29.64188 | -16.91278 | 35315 ft | 552 kts | 101° |
| 2026-05-05 16:36 | -29.65863 | -16.82680 | 35325 ft | 551 kts | 101° |
| 2026-05-05 16:37 | -29.67530 | -16.74087 | 35323 ft | 551 kts | 100° |
| 2026-05-05 16:37 | -29.69192 | -16.65488 | 35320 ft | 550 kts | 100° |
| 2026-05-05 16:38 | -29.70850 | -16.56882 | 35318 ft | 550 kts | 100° |
| 2026-05-05 16:38 | -29.72501 | -16.48282 | 35324 ft | 550 kts | 100° |
| 2026-05-05 16:39 | -29.74145 | -16.39686 | 35324 ft | 550 kts | 100° |
| 2026-05-05 16:39 | -29.75774 | -16.31134 | 35319 ft | 550 kts | 100° |
| 2026-05-05 16:40 | -29.77406 | -16.22534 | 35324 ft | 550 kts | 100° |
| 2026-05-05 16:40 | -29.79034 | -16.13927 | 35331 ft | 550 kts | 100° |
| 2026-05-05 16:41 | -29.80655 | -16.05321 | 35325 ft | 550 kts | 100° |
| 2026-05-05 16:41 | -29.82269 | -15.96717 | 35320 ft | 549 kts | 100° |
| 2026-05-05 16:42 | -29.83876 | -15.88122 | 35330 ft | 549 kts | 100° |
| 2026-05-05 16:42 | -29.85478 | -15.79521 | 35331 ft | 549 kts | 100° |
| 2026-05-05 16:43 | -29.87075 | -15.70915 | 35332 ft | 549 kts | 100° |
| 2026-05-05 16:43 | -29.88656 | -15.62363 | 35323 ft | 549 kts | 100° |
| 2026-05-05 16:44 | -29.90240 | -15.53761 | 35330 ft | 549 kts | 100° |
| 2026-05-05 16:44 | -29.91823 | -15.45128 | 35333 ft | 550 kts | 100° |
| 2026-05-05 16:45 | -29.93399 | -15.36501 | 35334 ft | 550 kts | 100° |
| 2026-05-05 16:45 | -29.94971 | -15.27866 | 35331 ft | 550 kts | 100° |
| 2026-05-05 16:46 | -29.96538 | -15.19222 | 35332 ft | 550 kts | 100° |
| 2026-05-05 16:46 | -29.98099 | -15.10578 | 35332 ft | 551 kts | 100° |
| 2026-05-05 16:47 | -29.99624 | -15.01920 | 35329 ft | 550 kts | 97° |
| 2026-05-05 16:47 | -30.00261 | -14.93178 | 35329 ft | 545 kts | 88° |
| 2026-05-05 16:48 | -30.00347 | -14.84430 | 35333 ft | 545 kts | 87° |
| 2026-05-05 16:48 | -30.00438 | -14.75733 | 35335 ft | 546 kts | 88° |
| 2026-05-05 16:49 | -30.00569 | -14.66965 | 35334 ft | 547 kts | 88° |
| 2026-05-05 16:49 | -30.00714 | -14.58190 | 35327 ft | 547 kts | 88° |
| 2026-05-05 16:50 | -30.00855 | -14.49404 | 35327 ft | 548 kts | 88° |
| 2026-05-05 16:50 | -30.00987 | -14.40611 | 35332 ft | 548 kts | 88° |
| 2026-05-05 16:51 | -30.01111 | -14.31808 | 35332 ft | 548 kts | 88° |
| 2026-05-05 16:51 | -30.01228 | -14.23006 | 35333 ft | 548 kts | 88° |
| 2026-05-05 16:52 | -30.01340 | -14.14208 | 35329 ft | 548 kts | 88° |
| 2026-05-05 16:52 | -30.01447 | -14.05410 | 35335 ft | 548 kts | 88° |
| 2026-05-05 16:53 | -30.01547 | -13.96662 | 35337 ft | 549 kts | 88° |
| 2026-05-05 16:53 | -30.01642 | -13.87856 | 35328 ft | 549 kts | 88° |
| 2026-05-05 16:54 | -30.01730 | -13.79055 | 35327 ft | 548 kts | 88° |
| 2026-05-05 16:54 | -30.01814 | -13.70255 | 35331 ft | 548 kts | 88° |
| 2026-05-05 16:55 | -30.01891 | -13.61462 | 35339 ft | 549 kts | 87° |
| 2026-05-05 16:55 | -30.01962 | -13.52654 | 35333 ft | 549 kts | 87° |
| 2026-05-05 16:56 | -30.02027 | -13.43857 | 35326 ft | 548 kts | 87° |
| 2026-05-05 16:56 | -30.02087 | -13.35052 | 35332 ft | 548 kts | 87° |
| 2026-05-05 16:57 | -30.02141 | -13.26247 | 35331 ft | 549 kts | 87° |
| 2026-05-05 16:57 | -30.02188 | -13.17438 | 35330 ft | 549 kts | 87° |
| 2026-05-05 16:58 | -30.02230 | -13.08694 | 35316 ft | 548 kts | 87° |
| 2026-05-05 16:58 | -30.02267 | -12.99907 | 35334 ft | 547 kts | 87° |
| 2026-05-05 16:59 | -30.02297 | -12.91136 | 35332 ft | 547 kts | 87° |
| 2026-05-05 16:59 | -30.02321 | -12.82370 | 35333 ft | 546 kts | 87° |
| 2026-05-05 17:00 | -30.02340 | -12.73610 | 35326 ft | 546 kts | 87° |
| 2026-05-05 17:00 | -30.02351 | -12.64813 | 35510 ft | 551 kts | 87° |
| 2026-05-05 17:01 | -30.02355 | -12.60392 | 35832 ft | 551 kts | 87° |
| 2026-05-05 17:01 | -30.02359 | -12.55976 | 36186 ft | 549 kts | 87° |
| 2026-05-05 17:01 | -30.02361 | -12.51572 | 36526 ft | 548 kts | 87° |
| 2026-05-05 17:01 | -30.02361 | -12.47171 | 36844 ft | 547 kts | 87° |
| 2026-05-05 17:02 | -30.02360 | -12.42832 | 37116 ft | 547 kts | 87° |
| 2026-05-05 17:02 | -30.02356 | -12.38425 | 37261 ft | 549 kts | 87° |
| 2026-05-05 17:02 | -30.02345 | -12.29606 | 37333 ft | 549 kts | 87° |
| 2026-05-05 17:03 | -30.02329 | -12.20810 | 37327 ft | 546 kts | 87° |
| 2026-05-05 17:03 | -30.02308 | -12.12067 | 37345 ft | 544 kts | 87° |
| 2026-05-05 17:04 | -30.02280 | -12.03412 | 37339 ft | 543 kts | 87° |
| 2026-05-05 17:04 | -30.02246 | -11.94700 | 37350 ft | 543 kts | 87° |
| 2026-05-05 17:05 | -30.02206 | -11.85985 | 37353 ft | 544 kts | 87° |
| 2026-05-05 17:05 | -30.02161 | -11.77245 | 37353 ft | 545 kts | 87° |
| 2026-05-05 17:06 | -30.02109 | -11.68489 | 37347 ft | 546 kts | 86° |
| 2026-05-05 17:06 | -30.02053 | -11.59723 | 37346 ft | 547 kts | 86° |
| 2026-05-05 17:07 | -30.01990 | -11.50934 | 37356 ft | 547 kts | 86° |
| 2026-05-05 17:07 | -30.01921 | -11.42141 | 37347 ft | 548 kts | 86° |
| 2026-05-05 17:08 | -30.01847 | -11.33354 | 37347 ft | 548 kts | 86° |
| 2026-05-05 17:08 | -30.01767 | -11.24576 | 37341 ft | 547 kts | 86° |
| 2026-05-05 17:09 | -30.01681 | -11.15808 | 37345 ft | 546 kts | 86° |
| 2026-05-05 17:09 | -30.01589 | -11.07051 | 37355 ft | 546 kts | 86° |
| 2026-05-05 17:10 | -30.01492 | -10.98302 | 37345 ft | 545 kts | 86° |
| 2026-05-05 17:10 | -30.01388 | -10.89554 | 37345 ft | 545 kts | 86° |
| 2026-05-05 17:11 | -30.01280 | -10.80828 | 37346 ft | 544 kts | 86° |
| 2026-05-05 17:11 | -30.01185 | -10.73568 | 37356 ft | 544 kts | 86° |
| 2026-05-05 17:12 | -30.01066 | -10.64836 | 37352 ft | 544 kts | 86° |
| 2026-05-05 17:12 | -30.00941 | -10.56111 | 37343 ft | 544 kts | 86° |
| 2026-05-05 17:13 | -30.00810 | -10.47388 | 37348 ft | 543 kts | 86° |
| 2026-05-05 17:13 | -30.00674 | -10.38672 | 37349 ft | 543 kts | 86° |
| 2026-05-05 17:14 | -30.00531 | -10.29954 | 37354 ft | 543 kts | 86° |
| 2026-05-05 17:14 | -30.00384 | -10.21243 | 37355 ft | 543 kts | 86° |
| 2026-05-05 17:15 | -30.00230 | -10.12526 | 37362 ft | 543 kts | 86° |
| 2026-05-05 17:15 | -30.00072 | -10.03829 | 37363 ft | 542 kts | 86° |
| 2026-05-05 17:16 | -29.99973 | -9.95137 | 37363 ft | 542 kts | 88° |
| 2026-05-05 17:16 | -30.00149 | -9.86434 | 37364 ft | 542 kts | 90° |
| 2026-05-05 17:17 | -30.00375 | -9.77785 | 37364 ft | 542 kts | 90° |
| 2026-05-05 17:17 | -30.00555 | -9.69095 | 37363 ft | 542 kts | 89° |
| 2026-05-05 17:18 | -30.00698 | -9.60396 | 37369 ft | 542 kts | 89° |
| 2026-05-05 17:18 | -30.00827 | -9.51697 | 37369 ft | 542 kts | 89° |
| 2026-05-05 17:19 | -30.00954 | -9.42996 | 37363 ft | 542 kts | 89° |
| 2026-05-05 17:19 | -30.01077 | -9.34311 | 37373 ft | 541 kts | 89° |
| 2026-05-05 17:20 | -30.01196 | -9.25622 | 37370 ft | 541 kts | 89° |
| 2026-05-05 17:20 | -30.01309 | -9.16928 | 37372 ft | 541 kts | 89° |
| 2026-05-05 17:21 | -30.01416 | -9.08245 | 37374 ft | 541 kts | 89° |
| 2026-05-05 17:22 | -30.01564 | -8.95268 | 37374 ft | 541 kts | 89° |
| 2026-05-05 17:22 | -30.01657 | -8.86590 | 37380 ft | 541 kts | 89° |
| 2026-05-05 17:23 | -30.01744 | -8.77902 | 37380 ft | 541 kts | 89° |
| 2026-05-05 17:23 | -30.01825 | -8.69222 | 37381 ft | 541 kts | 89° |
| 2026-05-05 17:24 | -30.01900 | -8.60533 | 37382 ft | 541 kts | 89° |
| 2026-05-05 17:24 | -30.01970 | -8.51853 | 37383 ft | 541 kts | 89° |
| 2026-05-05 17:25 | -30.02034 | -8.43172 | 37384 ft | 541 kts | 89° |
| 2026-05-05 17:25 | -30.02092 | -8.34491 | 37382 ft | 541 kts | 88° |
| 2026-05-05 17:26 | -30.02145 | -8.25815 | 37385 ft | 540 kts | 88° |
| 2026-05-05 17:26 | -30.02192 | -8.17155 | 37385 ft | 540 kts | 88° |
| 2026-05-05 17:27 | -30.02233 | -8.08491 | 37390 ft | 540 kts | 88° |
| 2026-05-05 17:27 | -30.02268 | -7.99822 | 37388 ft | 540 kts | 88° |
| 2026-05-05 17:28 | -30.02298 | -7.91159 | 37385 ft | 540 kts | 88° |
| 2026-05-05 17:28 | -30.02322 | -7.82499 | 37388 ft | 540 kts | 88° |
| 2026-05-05 17:29 | -30.02341 | -7.73893 | 37388 ft | 540 kts | 88° |
| 2026-05-05 17:29 | -30.02353 | -7.65231 | 37388 ft | 540 kts | 88° |
| 2026-05-05 17:30 | -30.02360 | -7.56571 | 37393 ft | 540 kts | 88° |
| 2026-05-05 17:30 | -30.02362 | -7.47902 | 37397 ft | 540 kts | 88° |
| 2026-05-05 17:31 | -30.02358 | -7.39239 | 37393 ft | 540 kts | 88° |
| 2026-05-05 17:31 | -30.02348 | -7.30583 | 37394 ft | 539 kts | 88° |
| 2026-05-05 17:32 | -30.02332 | -7.21928 | 37399 ft | 539 kts | 88° |
| 2026-05-05 17:32 | -30.02311 | -7.13271 | 37399 ft | 540 kts | 88° |
| 2026-05-05 17:33 | -30.02284 | -7.04619 | 37400 ft | 540 kts | 88° |
| 2026-05-05 17:33 | -30.02252 | -6.95959 | 37405 ft | 539 kts | 88° |
| 2026-05-05 17:34 | -30.02214 | -6.87304 | 37404 ft | 539 kts | 88° |
| 2026-05-05 17:34 | -30.02170 | -6.78651 | 37400 ft | 539 kts | 88° |
| 2026-05-05 17:35 | -30.02120 | -6.69995 | 37412 ft | 539 kts | 88° |
| 2026-05-05 17:35 | -30.02065 | -6.61340 | 37406 ft | 539 kts | 88° |
| 2026-05-05 17:36 | -30.02004 | -6.52692 | 37403 ft | 539 kts | 88° |
| 2026-05-05 17:36 | -30.01938 | -6.44098 | 37406 ft | 539 kts | 88° |
| 2026-05-05 17:37 | -30.01866 | -6.35443 | 37406 ft | 539 kts | 88° |
| 2026-05-05 17:37 | -30.01788 | -6.26800 | 37405 ft | 539 kts | 88° |
| 2026-05-05 17:38 | -30.01705 | -6.18152 | 37407 ft | 539 kts | 88° |
| 2026-05-05 17:38 | -30.01616 | -6.09496 | 37407 ft | 539 kts | 88° |
| 2026-05-05 17:39 | -30.01521 | -6.00855 | 37404 ft | 538 kts | 88° |
| 2026-05-05 17:39 | -30.01421 | -5.92216 | 37412 ft | 538 kts | 88° |
| 2026-05-05 17:40 | -30.01316 | -5.83647 | 37403 ft | 538 kts | 88° |
| 2026-05-05 17:40 | -30.01205 | -5.75023 | 37413 ft | 537 kts | 88° |
| 2026-05-05 17:41 | -30.01088 | -5.66409 | 37407 ft | 537 kts | 88° |
| 2026-05-05 17:41 | -30.00965 | -5.57790 | 37410 ft | 537 kts | 88° |
| 2026-05-05 17:42 | -30.00837 | -5.49184 | 37412 ft | 537 kts | 88° |
| 2026-05-05 17:42 | -30.00704 | -5.40572 | 37412 ft | 536 kts | 87° |
| 2026-05-05 17:43 | -30.00565 | -5.31971 | 37395 ft | 536 kts | 88° |
| 2026-05-05 17:43 | -30.00421 | -5.23373 | 37410 ft | 535 kts | 88° |
| 2026-05-05 17:44 | -30.00271 | -5.14786 | 37414 ft | 535 kts | 87° |
| 2026-05-05 17:44 | -30.00117 | -5.06261 | 37415 ft | 535 kts | 87° |
| 2026-05-05 17:45 | -29.99971 | -4.97688 | 37411 ft | 535 kts | 89° |
| 2026-05-05 17:45 | -30.00084 | -4.89110 | 37414 ft | 535 kts | 91° |
| 2026-05-05 17:46 | -30.00310 | -4.80530 | 37414 ft | 535 kts | 91° |
| 2026-05-05 17:46 | -30.00502 | -4.71949 | 37412 ft | 535 kts | 90° |
| 2026-05-05 17:47 | -30.00651 | -4.63361 | 37415 ft | 535 kts | 90° |
| 2026-05-05 17:47 | -30.00781 | -4.54780 | 37414 ft | 535 kts | 90° |
| 2026-05-05 17:48 | -30.00907 | -4.46192 | 37415 ft | 535 kts | 90° |
| 2026-05-05 17:48 | -30.01031 | -4.37605 | 37412 ft | 535 kts | 90° |
| 2026-05-05 17:49 | -30.01150 | -4.29070 | 37416 ft | 535 kts | 90° |
| 2026-05-05 17:49 | -30.01263 | -4.20483 | 37415 ft | 535 kts | 90° |
| 2026-05-05 17:50 | -30.01371 | -4.11890 | 37412 ft | 535 kts | 90° |
| 2026-05-05 17:50 | -30.01459 | -4.03306 | 37422 ft | 535 kts | 90° |
| 2026-05-05 17:51 | -30.01564 | -3.94722 | 37415 ft | 535 kts | 90° |
| 2026-05-05 17:51 | -30.01662 | -3.86140 | 37415 ft | 535 kts | 90° |
| 2026-05-05 17:52 | -30.01749 | -3.77545 | 37419 ft | 535 kts | 90° |
| 2026-05-05 17:52 | -30.01828 | -3.68958 | 37417 ft | 535 kts | 90° |
| 2026-05-05 17:53 | -30.01902 | -3.60383 | 37420 ft | 535 kts | 90° |
| 2026-05-05 17:53 | -30.01970 | -3.51802 | 37421 ft | 535 kts | 90° |
| 2026-05-05 17:54 | -30.02033 | -3.43281 | 37421 ft | 534 kts | 90° |
| 2026-05-05 17:54 | -30.02091 | -3.34707 | 37420 ft | 534 kts | 90° |
| 2026-05-05 17:55 | -30.02143 | -3.26131 | 37418 ft | 534 kts | 90° |
| 2026-05-05 17:55 | -30.02190 | -3.17561 | 37421 ft | 534 kts | 90° |
| 2026-05-05 17:56 | -30.02231 | -3.08989 | 37423 ft | 534 kts | 90° |
| 2026-05-05 17:56 | -30.02266 | -3.00416 | 37422 ft | 534 kts | 90° |
| 2026-05-05 17:57 | -30.02296 | -2.91847 | 37417 ft | 534 kts | 90° |
| 2026-05-05 17:57 | -30.02320 | -2.83276 | 37419 ft | 534 kts | 90° |
| 2026-05-05 17:58 | -30.02339 | -2.74753 | 37418 ft | 534 kts | 90° |
| 2026-05-05 17:58 | -30.02352 | -2.66172 | 37420 ft | 534 kts | 90° |
| 2026-05-05 17:59 | -30.02360 | -2.57591 | 37417 ft | 535 kts | 90° |
| 2026-05-05 17:59 | -30.02362 | -2.49008 | 37418 ft | 534 kts | 90° |
| 2026-05-05 18:00 | -30.02360 | -2.41876 | 37420 ft | 534 kts | 90° |
| 2026-05-05 18:00 | -30.02352 | -2.33303 | 37424 ft | 534 kts | 90° |
| 2026-05-05 18:01 | -30.02338 | -2.24730 | 37426 ft | 534 kts | 90° |
| 2026-05-05 18:01 | -30.02319 | -2.16158 | 37419 ft | 534 kts | 90° |
| 2026-05-05 18:02 | -30.02294 | -2.07579 | 37426 ft | 534 kts | 90° |
| 2026-05-05 18:02 | -30.02264 | -1.99014 | 37425 ft | 534 kts | 90° |
| 2026-05-05 18:03 | -30.02228 | -1.90446 | 37424 ft | 534 kts | 90° |
| 2026-05-05 18:03 | -30.02186 | -1.81875 | 37425 ft | 533 kts | 90° |
| 2026-05-05 18:04 | -30.02140 | -1.73312 | 37429 ft | 533 kts | 90° |
| 2026-05-05 18:04 | -30.02088 | -1.64813 | 37429 ft | 533 kts | 90° |
| 2026-05-05 18:05 | -30.02030 | -1.56258 | 37426 ft | 533 kts | 90° |
| 2026-05-05 18:05 | -30.01966 | -1.47703 | 37426 ft | 533 kts | 90° |
| 2026-05-05 18:06 | -30.01897 | -1.39132 | 37428 ft | 533 kts | 90° |
| 2026-05-05 18:06 | -30.01823 | -1.30573 | 37429 ft | 533 kts | 90° |
| 2026-05-05 18:07 | -30.01743 | -1.22013 | 37425 ft | 534 kts | 90° |
| 2026-05-05 18:07 | -30.01657 | -1.13449 | 37440 ft | 534 kts | 90° |
| 2026-05-05 18:08 | -30.01566 | -1.04880 | 37426 ft | 534 kts | 90° |
| 2026-05-05 18:08 | -30.01470 | -0.96365 | 37429 ft | 534 kts | 90° |
| 2026-05-05 18:09 | -30.01367 | -0.87798 | 37431 ft | 534 kts | 90° |
| 2026-05-05 18:09 | -30.01260 | -0.79235 | 37431 ft | 534 kts | 89° |
| 2026-05-05 18:10 | -30.01146 | -0.70667 | 37432 ft | 534 kts | 90° |
| 2026-05-05 18:10 | -30.01027 | -0.62096 | 37431 ft | 534 kts | 90° |
| 2026-05-05 18:11 | -30.00903 | -0.53531 | 37433 ft | 534 kts | 90° |
| 2026-05-05 18:11 | -30.00773 | -0.44954 | 37432 ft | 534 kts | 90° |
| 2026-05-05 18:12 | -30.00637 | -0.36387 | 37430 ft | 534 kts | 89° |
| 2026-05-05 18:12 | -30.00496 | -0.27809 | 37431 ft | 534 kts | 89° |
| 2026-05-05 18:13 | -30.00349 | -0.19232 | 37433 ft | 534 kts | 89° |
| 2026-05-05 18:13 | -30.00197 | -0.10657 | 37431 ft | 535 kts | 89° |
| 2026-05-05 18:14 | -30.00041 | -0.02145 | 37431 ft | 535 kts | 89° |
| 2026-05-05 18:14 | -29.99993 | 0.06432 | 37437 ft | 534 kts | 92° |
| 2026-05-05 18:15 | -30.00192 | 0.14999 | 37435 ft | 534 kts | 93° |
| 2026-05-05 18:15 | -30.00408 | 0.23569 | 37438 ft | 534 kts | 92° |
| 2026-05-05 18:16 | -30.00576 | 0.32144 | 37429 ft | 535 kts | 92° |
| 2026-05-05 18:16 | -30.00714 | 0.40723 | 37439 ft | 535 kts | 92° |
| 2026-05-05 18:17 | -30.00841 | 0.49307 | 37434 ft | 535 kts | 92° |
| 2026-05-05 18:17 | -30.00967 | 0.57889 | 37433 ft | 535 kts | 92° |
| 2026-05-05 18:18 | -30.01088 | 0.66471 | 37435 ft | 535 kts | 92° |
| 2026-05-05 18:18 | -30.01205 | 0.75051 | 37434 ft | 535 kts | 92° |
| 2026-05-05 18:19 | -30.01316 | 0.83631 | 37437 ft | 535 kts | 92° |
| 2026-05-05 18:19 | -30.01421 | 0.92212 | 37436 ft | 535 kts | 92° |
| 2026-05-05 18:20 | -30.01521 | 1.00801 | 37435 ft | 535 kts | 92° |
| 2026-05-05 18:20 | -30.01614 | 1.09326 | 37440 ft | 535 kts | 92° |
| 2026-05-05 18:21 | -30.01702 | 1.17902 | 37438 ft | 535 kts | 92° |
| 2026-05-05 18:21 | -30.01785 | 1.26484 | 37433 ft | 535 kts | 92° |
| 2026-05-05 18:22 | -30.01863 | 1.35059 | 37436 ft | 535 kts | 92° |
| 2026-05-05 18:22 | -30.01935 | 1.43643 | 37434 ft | 534 kts | 92° |
| 2026-05-05 18:23 | -30.02001 | 1.52217 | 37436 ft | 534 kts | 92° |
| 2026-05-05 18:23 | -30.02061 | 1.60795 | 37437 ft | 535 kts | 92° |
| 2026-05-05 18:24 | -30.02116 | 1.69376 | 37431 ft | 535 kts | 92° |
| 2026-05-05 18:24 | -30.02166 | 1.77952 | 37432 ft | 535 kts | 92° |
| 2026-05-05 18:25 | -30.02210 | 1.86546 | 37437 ft | 535 kts | 92° |
| 2026-05-05 18:25 | -30.02248 | 1.95136 | 37442 ft | 535 kts | 92° |
| 2026-05-05 18:26 | -30.02281 | 2.03721 | 37431 ft | 535 kts | 92° |
| 2026-05-05 18:26 | -30.02309 | 2.12313 | 37431 ft | 535 kts | 92° |
| 2026-05-05 18:27 | -30.02330 | 2.20909 | 37429 ft | 535 kts | 92° |
| 2026-05-05 18:27 | -30.02346 | 2.29440 | 37436 ft | 535 kts | 92° |
| 2026-05-05 18:28 | -30.02360 | 2.42334 | 37427 ft | 536 kts | 92° |
| 2026-05-05 18:28 | -30.02362 | 2.50925 | 37424 ft | 535 kts | 92° |
| 2026-05-05 18:29 | -30.02359 | 2.59515 | 37425 ft | 535 kts | 92° |
| 2026-05-05 18:29 | -30.02350 | 2.68101 | 37436 ft | 535 kts | 92° |
| 2026-05-05 18:30 | -30.02335 | 2.76695 | 37422 ft | 536 kts | 92° |
| 2026-05-05 18:30 | -30.02315 | 2.85301 | 37424 ft | 536 kts | 92° |
| 2026-05-05 18:31 | -30.02289 | 2.93894 | 37418 ft | 536 kts | 92° |
| 2026-05-05 18:31 | -30.02258 | 3.02431 | 37423 ft | 536 kts | 92° |
| 2026-05-05 18:32 | -30.02221 | 3.11022 | 37423 ft | 536 kts | 92° |
| 2026-05-05 18:32 | -30.02179 | 3.19614 | 37421 ft | 536 kts | 92° |
| 2026-05-05 18:33 | -30.02131 | 3.28210 | 37418 ft | 536 kts | 92° |
| 2026-05-05 18:33 | -30.02077 | 3.36804 | 37415 ft | 535 kts | 92° |
| 2026-05-05 18:34 | -30.02018 | 3.45406 | 37419 ft | 535 kts | 92° |
| 2026-05-05 18:34 | -30.01953 | 3.54000 | 37411 ft | 536 kts | 92° |
| 2026-05-05 18:35 | -30.01883 | 3.62601 | 37413 ft | 536 kts | 92° |
| 2026-05-05 18:35 | -30.01807 | 3.71192 | 37413 ft | 536 kts | 92° |
| 2026-05-05 18:36 | -30.01725 | 3.79787 | 37413 ft | 536 kts | 92° |
| 2026-05-05 18:36 | -30.01638 | 3.88385 | 37417 ft | 536 kts | 92° |
| 2026-05-05 18:37 | -30.01546 | 3.96921 | 37416 ft | 536 kts | 92° |
| 2026-05-05 18:37 | -30.01448 | 4.05516 | 37412 ft | 536 kts | 92° |
| 2026-05-05 18:38 | -30.01344 | 4.14114 | 37409 ft | 536 kts | 92° |
| 2026-05-05 18:38 | -30.01234 | 4.22704 | 37406 ft | 536 kts | 92° |
| 2026-05-05 18:39 | -30.01119 | 4.31301 | 37413 ft | 536 kts | 92° |
| 2026-05-05 18:39 | -30.00999 | 4.39891 | 37403 ft | 536 kts | 92° |
| 2026-05-05 18:40 | -30.00873 | 4.48488 | 37404 ft | 535 kts | 92° |
| 2026-05-05 18:40 | -30.00741 | 4.57085 | 37407 ft | 535 kts | 92° |
| 2026-05-05 18:41 | -30.00603 | 4.65674 | 37403 ft | 535 kts | 92° |
| 2026-05-05 18:41 | -30.00462 | 4.74206 | 37400 ft | 535 kts | 92° |
| 2026-05-05 18:42 | -30.00313 | 4.82799 | 37399 ft | 535 kts | 92° |
| 2026-05-05 18:42 | -30.00160 | 4.91385 | 37410 ft | 535 kts | 92° |
| 2026-05-05 18:43 | -30.00001 | 4.99966 | 37414 ft | 535 kts | 92° |
| 2026-05-05 18:43 | -30.00031 | 5.08531 | 37408 ft | 533 kts | 95° |
| 2026-05-05 18:44 | -30.00248 | 5.17075 | 37410 ft | 533 kts | 96° |
| 2026-05-05 18:44 | -30.00453 | 5.25619 | 37404 ft | 533 kts | 95° |
| 2026-05-05 18:45 | -30.00610 | 5.34165 | 37424 ft | 533 kts | 95° |
| 2026-05-05 18:45 | -30.00743 | 5.42668 | 37401 ft | 534 kts | 95° |
| 2026-05-05 18:46 | -30.00870 | 5.51241 | 37401 ft | 534 kts | 95° |
| 2026-05-05 18:46 | -30.00994 | 5.59817 | 37400 ft | 535 kts | 95° |
| 2026-05-05 18:47 | -30.01115 | 5.68398 | 37397 ft | 535 kts | 95° |
| 2026-05-05 18:47 | -30.01230 | 5.76972 | 37402 ft | 535 kts | 95° |
| 2026-05-05 18:48 | -30.01340 | 5.85555 | 37395 ft | 535 kts | 95° |
| 2026-05-05 18:48 | -30.01427 | 5.92751 | 37396 ft | 535 kts | 95° |
| 2026-05-05 18:49 | -30.01526 | 6.01270 | 37387 ft | 535 kts | 95° |
| 2026-05-05 18:49 | -30.01619 | 6.09854 | 37399 ft | 534 kts | 95° |
| 2026-05-05 18:50 | -30.01708 | 6.18436 | 37385 ft | 534 kts | 95° |
| 2026-05-05 18:50 | -30.01790 | 6.27021 | 37385 ft | 534 kts | 95° |
| 2026-05-05 18:51 | -30.01867 | 6.35595 | 37391 ft | 534 kts | 95° |
| 2026-05-05 18:51 | -30.01938 | 6.44116 | 37394 ft | 534 kts | 95° |
| 2026-05-05 18:52 | -30.02004 | 6.52690 | 37399 ft | 534 kts | 95° |
| 2026-05-05 18:52 | -30.02065 | 6.61271 | 37384 ft | 534 kts | 95° |
| 2026-05-05 18:53 | -30.02119 | 6.69839 | 37384 ft | 534 kts | 95° |
| 2026-05-05 18:53 | -30.02168 | 6.78413 | 37381 ft | 534 kts | 95° |
| 2026-05-05 18:54 | -30.02212 | 6.86987 | 37402 ft | 534 kts | 95° |
| 2026-05-05 18:54 | -30.02250 | 6.95568 | 37379 ft | 535 kts | 95° |
| 2026-05-05 18:55 | -30.02283 | 7.04161 | 37377 ft | 535 kts | 95° |
| 2026-05-05 18:55 | -30.02310 | 7.12751 | 37384 ft | 535 kts | 95° |
| 2026-05-05 18:56 | -30.02331 | 7.21342 | 37376 ft | 536 kts | 95° |
| 2026-05-05 18:56 | -30.02347 | 7.29893 | 37373 ft | 536 kts | 95° |
| 2026-05-05 18:57 | -30.02357 | 7.38486 | 37373 ft | 536 kts | 95° |
| 2026-05-05 18:57 | -30.02362 | 7.47091 | 37377 ft | 536 kts | 95° |
| 2026-05-05 18:58 | -30.02361 | 7.55700 | 37371 ft | 536 kts | 95° |
| 2026-05-05 18:58 | -30.02354 | 7.64304 | 37376 ft | 536 kts | 95° |
| 2026-05-05 18:59 | -30.02342 | 7.72908 | 37369 ft | 536 kts | 95° |
| 2026-05-05 18:59 | -30.02324 | 7.81506 | 37368 ft | 536 kts | 95° |
| 2026-05-05 19:00 | -30.02301 | 7.90098 | 37367 ft | 536 kts | 95° |
| 2026-05-05 19:00 | -30.02272 | 7.98694 | 37387 ft | 535 kts | 95° |
| 2026-05-05 19:01 | -30.02238 | 8.07291 | 37368 ft | 536 kts | 95° |
| 2026-05-05 19:01 | -30.02198 | 8.15886 | 37361 ft | 535 kts | 95° |
| 2026-05-05 19:02 | -30.02152 | 8.24434 | 37357 ft | 535 kts | 95° |
| 2026-05-05 19:02 | -30.02101 | 8.33014 | 37359 ft | 535 kts | 95° |
| 2026-05-05 19:03 | -30.02046 | 8.41603 | 37359 ft | 535 kts | 95° |
| 2026-05-05 19:03 | -30.01983 | 8.50192 | 37345 ft | 535 kts | 95° |
| 2026-05-05 19:04 | -30.01914 | 8.58767 | 37347 ft | 534 kts | 95° |
| 2026-05-05 19:04 | -30.01841 | 8.67338 | 37346 ft | 534 kts | 95° |
| 2026-05-05 19:05 | -30.01762 | 8.75911 | 37358 ft | 534 kts | 96° |
| 2026-05-05 19:05 | -30.01678 | 8.84482 | 37344 ft | 534 kts | 95° |
| 2026-05-05 19:06 | -30.01588 | 8.93061 | 37344 ft | 534 kts | 95° |
| 2026-05-05 19:06 | -30.01493 | 9.01629 | 37343 ft | 534 kts | 95° |
| 2026-05-05 19:07 | -30.01392 | 9.10203 | 37360 ft | 535 kts | 96° |
| 2026-05-05 19:07 | -30.01285 | 9.18790 | 37339 ft | 535 kts | 96° |
| 2026-05-05 19:08 | -30.01173 | 9.27383 | 37332 ft | 536 kts | 96° |
| 2026-05-05 19:08 | -30.01055 | 9.35978 | 37333 ft | 536 kts | 95° |
| 2026-05-05 19:09 | -30.00932 | 9.44525 | 37330 ft | 536 kts | 95° |
| 2026-05-05 19:09 | -30.00802 | 9.53128 | 37331 ft | 536 kts | 96° |
| 2026-05-05 19:10 | -30.00667 | 9.61738 | 37326 ft | 536 kts | 96° |
| 2026-05-05 19:10 | -30.00527 | 9.70336 | 37320 ft | 536 kts | 96° |
| 2026-05-05 19:11 | -30.00381 | 9.78929 | 37319 ft | 535 kts | 96° |
| 2026-05-05 19:11 | -30.00229 | 9.87510 | 37327 ft | 535 kts | 96° |
| 2026-05-05 19:12 | -30.00074 | 9.96091 | 37317 ft | 534 kts | 96° |
| 2026-05-05 19:12 | -29.99437 | 10.04680 | 37311 ft | 542 kts | 86° |
| 2026-05-05 19:13 | -29.98128 | 10.13243 | 37307 ft | 542 kts | 85° |
| 2026-05-05 19:13 | -29.96780 | 10.21803 | 37342 ft | 542 kts | 86° |
| 2026-05-05 19:14 | -29.95469 | 10.30375 | 37306 ft | 543 kts | 86° |
| 2026-05-05 19:14 | -29.94181 | 10.38952 | 37302 ft | 543 kts | 86° |
| 2026-05-05 19:15 | -29.92891 | 10.47533 | 37300 ft | 543 kts | 86° |
| 2026-05-05 19:15 | -29.91601 | 10.56060 | 37303 ft | 543 kts | 86° |
| 2026-05-05 19:16 | -29.90291 | 10.64659 | 37299 ft | 544 kts | 86° |
| 2026-05-05 19:16 | -29.88976 | 10.73253 | 37290 ft | 544 kts | 86° |
| 2026-05-05 19:17 | -29.87655 | 10.81842 | 37290 ft | 544 kts | 86° |
| 2026-05-05 19:17 | -29.86329 | 10.90424 | 37288 ft | 544 kts | 86° |
| 2026-05-05 19:18 | -29.84997 | 10.99016 | 37288 ft | 544 kts | 86° |
| 2026-05-05 19:18 | -29.83659 | 11.07603 | 37282 ft | 544 kts | 86° |
| 2026-05-05 19:19 | -29.82318 | 11.16172 | 37286 ft | 544 kts | 86° |
| 2026-05-05 19:19 | -29.80981 | 11.24683 | 37286 ft | 544 kts | 86° |
| 2026-05-05 19:20 | -29.79629 | 11.33249 | 37300 ft | 544 kts | 86° |
| 2026-05-05 19:20 | -29.78272 | 11.41806 | 37278 ft | 543 kts | 86° |
| 2026-05-05 19:21 | -29.76911 | 11.50348 | 37276 ft | 542 kts | 86° |
| 2026-05-05 19:21 | -29.75548 | 11.58873 | 37278 ft | 541 kts | 86° |
| 2026-05-05 19:22 | -29.74182 | 11.67382 | 37271 ft | 540 kts | 86° |
| 2026-05-05 19:22 | -29.72810 | 11.75889 | 37261 ft | 540 kts | 86° |
| 2026-05-05 19:23 | -29.71435 | 11.84384 | 37270 ft | 540 kts | 86° |
| 2026-05-05 19:23 | -29.70055 | 11.92868 | 37267 ft | 540 kts | 85° |
| 2026-05-05 19:24 | -29.68670 | 12.01350 | 37267 ft | 540 kts | 85° |
| 2026-05-05 19:24 | -29.67280 | 12.09827 | 37268 ft | 540 kts | 86° |
| 2026-05-05 19:25 | -29.65883 | 12.18308 | 37259 ft | 539 kts | 85° |
| 2026-05-05 19:25 | -29.64491 | 12.26723 | 37247 ft | 539 kts | 85° |
| 2026-05-05 19:26 | -29.63088 | 12.35176 | 37247 ft | 538 kts | 85° |
| 2026-05-05 19:26 | -29.61678 | 12.43628 | 37269 ft | 538 kts | 86° |
| 2026-05-05 19:27 | -29.60265 | 12.52071 | 37240 ft | 537 kts | 85° |
| 2026-05-05 19:27 | -29.58849 | 12.60494 | 37237 ft | 536 kts | 85° |
| 2026-05-05 19:28 | -29.57430 | 12.68900 | 37235 ft | 536 kts | 85° |
| 2026-05-05 19:28 | -29.56006 | 12.77307 | 37267 ft | 535 kts | 85° |
| 2026-05-05 19:29 | -29.54580 | 12.85696 | 37230 ft | 535 kts | 86° |
| 2026-05-05 19:29 | -29.53147 | 12.94087 | 37225 ft | 535 kts | 85° |
| 2026-05-05 19:30 | -29.51708 | 13.02474 | 37228 ft | 535 kts | 85° |
| 2026-05-05 19:30 | -29.50267 | 13.10849 | 37221 ft | 535 kts | 85° |
| 2026-05-05 19:31 | -29.48820 | 13.19224 | 37225 ft | 535 kts | 86° |
| 2026-05-05 19:31 | -29.47378 | 13.27536 | 37216 ft | 535 kts | 86° |
| 2026-05-05 19:32 | -29.45920 | 13.35901 | 37212 ft | 534 kts | 86° |
| 2026-05-05 19:32 | -29.44460 | 13.44253 | 37211 ft | 533 kts | 85° |
| 2026-05-05 19:33 | -29.42995 | 13.52601 | 37235 ft | 533 kts | 86° |
| 2026-05-05 19:33 | -29.41525 | 13.60944 | 37209 ft | 533 kts | 86° |
| 2026-05-05 19:34 | -29.40302 | 13.67861 | 37181 ft | 533 kts | 85° |
| 2026-05-05 19:35 | -29.37843 | 13.81708 | 37194 ft | 533 kts | 85° |
| 2026-05-05 19:35 | -29.36607 | 13.88633 | 37212 ft | 534 kts | 86° |
| 2026-05-05 19:36 | -29.35115 | 13.96966 | 37194 ft | 534 kts | 86° |
| 2026-05-05 19:36 | -29.33615 | 14.05312 | 37193 ft | 534 kts | 85° |
| 2026-05-05 19:37 | -29.32108 | 14.13659 | 37190 ft | 534 kts | 85° |
| 2026-05-05 19:37 | -29.30598 | 14.21999 | 37235 ft | 535 kts | 86° |
| 2026-05-05 19:38 | -29.29079 | 14.30356 | 37186 ft | 536 kts | 86° |
| 2026-05-05 19:38 | -29.27554 | 14.38716 | 37182 ft | 536 kts | 86° |
| 2026-05-05 19:39 | -29.26022 | 14.47077 | 37176 ft | 536 kts | 85° |
| 2026-05-05 19:39 | -29.24484 | 14.55444 | 37167 ft | 536 kts | 85° |
| 2026-05-05 19:40 | -29.22942 | 14.63801 | 37165 ft | 536 kts | 85° |
| 2026-05-05 19:40 | -29.21407 | 14.72090 | 37169 ft | 536 kts | 85° |
| 2026-05-05 19:41 | -29.19853 | 14.80452 | 37170 ft | 536 kts | 85° |
| 2026-05-05 19:41 | -29.18297 | 14.88798 | 37164 ft | 536 kts | 85° |
| 2026-05-05 19:42 | -29.16721 | 14.97152 | 37171 ft | 539 kts | 84° |
| 2026-05-05 19:42 | -29.14323 | 15.05375 | 37164 ft | 549 kts | 72° |
| 2026-05-05 19:43 | -29.11245 | 15.13329 | 37165 ft | 550 kts | 72° |
| 2026-05-05 19:43 | -29.08133 | 15.21320 | 37159 ft | 550 kts | 72° |
| 2026-05-05 19:44 | -29.05063 | 15.29335 | 37212 ft | 550 kts | 72° |
| 2026-05-05 19:44 | -29.02010 | 15.37370 | 37157 ft | 551 kts | 72° |
| 2026-05-05 19:45 | -28.98952 | 15.45399 | 37154 ft | 551 kts | 72° |
| 2026-05-05 19:45 | -28.95883 | 15.53428 | 37155 ft | 551 kts | 72° |
| 2026-05-05 19:46 | -28.92809 | 15.61446 | 37155 ft | 551 kts | 72° |
| 2026-05-05 19:46 | -28.89730 | 15.69464 | 37154 ft | 552 kts | 72° |
| 2026-05-05 19:47 | -28.86646 | 15.77474 | 37150 ft | 551 kts | 71° |
| 2026-05-05 19:47 | -28.83560 | 15.85474 | 37153 ft | 551 kts | 71° |
| 2026-05-05 19:48 | -28.80467 | 15.93478 | 37152 ft | 551 kts | 71° |
| 2026-05-05 19:48 | -28.77371 | 16.01471 | 37192 ft | 551 kts | 71° |
| 2026-05-05 19:49 | -28.74265 | 16.09474 | 37148 ft | 552 kts | 71° |
| 2026-05-05 19:49 | -28.71170 | 16.17429 | 37134 ft | 553 kts | 71° |
| 2026-05-05 19:50 | -28.68050 | 16.25432 | 37120 ft | 553 kts | 71° |
| 2026-05-05 19:50 | -28.64924 | 16.33436 | 37109 ft | 553 kts | 71° |
| 2026-05-05 19:51 | -28.61791 | 16.41444 | 37098 ft | 554 kts | 71° |
| 2026-05-05 19:51 | -28.58649 | 16.49455 | 37109 ft | 554 kts | 71° |
| 2026-05-05 19:52 | -28.55965 | 16.57610 | 37105 ft | 545 kts | 81° |
| 2026-05-05 19:52 | -28.54062 | 16.65937 | 37131 ft | 544 kts | 82° |
| 2026-05-05 19:53 | -28.52140 | 16.74211 | 37147 ft | 545 kts | 81° |
| 2026-05-05 19:53 | -28.50137 | 16.82537 | 37156 ft | 546 kts | 81° |
| 2026-05-05 19:54 | -28.48139 | 16.90878 | 37152 ft | 547 kts | 81° |
| 2026-05-05 19:54 | -28.46146 | 16.99227 | 37138 ft | 547 kts | 81° |
| 2026-05-05 19:55 | -28.44146 | 17.07576 | 37144 ft | 548 kts | 80° |
| 2026-05-05 19:55 | -28.42139 | 17.15923 | 37138 ft | 547 kts | 80° |
| 2026-05-05 19:56 | -28.40127 | 17.24268 | 37134 ft | 549 kts | 80° |
| 2026-05-05 19:56 | -28.38100 | 17.32640 | 37142 ft | 550 kts | 80° |
| 2026-05-05 19:57 | -28.36066 | 17.41020 | 37152 ft | 551 kts | 79° |
| 2026-05-05 19:57 | -28.34022 | 17.49426 | 37134 ft | 553 kts | 79° |
| 2026-05-05 19:58 | -28.31967 | 17.57843 | 37124 ft | 554 kts | 79° |
| 2026-05-05 19:58 | -28.29915 | 17.66214 | 37126 ft | 554 kts | 79° |
| 2026-05-05 19:59 | -28.27838 | 17.74617 | 37171 ft | 553 kts | 78° |
| 2026-05-05 19:59 | -28.25756 | 17.83026 | 37137 ft | 554 kts | 78° |
| 2026-05-05 20:00 | -28.23671 | 17.91433 | 37122 ft | 553 kts | 78° |
| 2026-05-05 20:00 | -28.21593 | 17.99829 | 37143 ft | 553 kts | 78° |
| 2026-05-05 20:01 | -28.19513 | 18.08226 | 37123 ft | 553 kts | 78° |
| 2026-05-05 20:01 | -28.17415 | 18.16614 | 37135 ft | 553 kts | 77° |
| 2026-05-05 20:02 | -28.15278 | 18.24990 | 37122 ft | 553 kts | 77° |
| 2026-05-05 20:02 | -28.13140 | 18.33368 | 37117 ft | 553 kts | 77° |
| 2026-05-05 20:03 | -28.11013 | 18.41740 | 37140 ft | 553 kts | 78° |
| 2026-05-05 20:03 | -28.08894 | 18.50112 | 37132 ft | 553 kts | 77° |
| 2026-05-05 20:04 | -28.06766 | 18.58489 | 37130 ft | 553 kts | 77° |
| 2026-05-05 20:04 | -28.05154 | 18.66900 | 37138 ft | 548 kts | 84° |
| 2026-05-05 20:05 | -28.03991 | 18.75431 | 37128 ft | 548 kts | 85° |
| 2026-05-05 20:05 | -28.02834 | 18.83968 | 37133 ft | 549 kts | 84° |
| 2026-05-05 20:06 | -28.01627 | 18.92501 | 37132 ft | 549 kts | 84° |
| 2026-05-05 20:06 | -28.00391 | 19.01040 | 37127 ft | 550 kts | 84° |
| 2026-05-05 20:07 | -27.99150 | 19.09577 | 37126 ft | 550 kts | 84° |
| 2026-05-05 20:07 | -27.97907 | 19.18109 | 37119 ft | 550 kts | 83° |
| 2026-05-05 20:08 | -27.96660 | 19.26643 | 37117 ft | 550 kts | 83° |
| 2026-05-05 20:08 | -27.95409 | 19.35171 | 37120 ft | 550 kts | 83° |
| 2026-05-05 20:09 | -27.94159 | 19.43645 | 37120 ft | 549 kts | 83° |
| 2026-05-05 20:09 | -27.92898 | 19.52168 | 37128 ft | 550 kts | 82° |
| 2026-05-05 20:10 | -27.91628 | 19.60706 | 37117 ft | 550 kts | 82° |
| 2026-05-05 20:10 | -27.90352 | 19.69243 | 37116 ft | 551 kts | 82° |
| 2026-05-05 20:11 | -27.89069 | 19.77801 | 37115 ft | 551 kts | 82° |
| 2026-05-05 20:11 | -27.87781 | 19.86351 | 37113 ft | 552 kts | 81° |
| 2026-05-05 20:12 | -27.86486 | 19.94904 | 37111 ft | 552 kts | 81° |
| 2026-05-05 20:12 | -27.85193 | 20.03408 | 37110 ft | 553 kts | 81° |
| 2026-05-05 20:13 | -27.83885 | 20.11980 | 37113 ft | 553 kts | 81° |
| 2026-05-05 20:13 | -27.82572 | 20.20550 | 37110 ft | 553 kts | 80° |
| 2026-05-05 20:14 | -27.81253 | 20.29115 | 37109 ft | 553 kts | 80° |
| 2026-05-05 20:14 | -27.79930 | 20.37671 | 37102 ft | 552 kts | 80° |
| 2026-05-05 20:15 | -27.78604 | 20.46212 | 37111 ft | 552 kts | 80° |
| 2026-05-05 20:15 | -27.77274 | 20.54750 | 37110 ft | 552 kts | 79° |
| 2026-05-05 20:16 | -27.75947 | 20.63224 | 37104 ft | 551 kts | 79° |
| 2026-05-05 20:16 | -27.74607 | 20.71748 | 37104 ft | 551 kts | 79° |
| 2026-05-05 20:17 | -27.73264 | 20.80262 | 37112 ft | 550 kts | 79° |
| 2026-05-05 20:17 | -27.71913 | 20.88770 | 37104 ft | 551 kts | 78° |
| 2026-05-05 20:18 | -27.70557 | 20.97232 | 37103 ft | 551 kts | 78° |
| 2026-05-05 20:18 | -27.69187 | 21.05761 | 37111 ft | 551 kts | 78° |
| 2026-05-05 20:19 | -27.67815 | 21.14281 | 37105 ft | 552 kts | 78° |
| 2026-05-05 20:19 | -27.66437 | 21.22801 | 37111 ft | 552 kts | 77° |
| 2026-05-05 20:20 | -27.65053 | 21.31326 | 37116 ft | 552 kts | 77° |
| 2026-05-05 20:20 | -27.63671 | 21.39794 | 37114 ft | 553 kts | 77° |
| 2026-05-05 20:21 | -27.62276 | 21.48321 | 37118 ft | 553 kts | 77° |
| 2026-05-05 20:21 | -27.60875 | 21.56845 | 37120 ft | 553 kts | 77° |
| 2026-05-05 20:22 | -27.59467 | 21.65377 | 37116 ft | 553 kts | 77° |
| 2026-05-05 20:22 | -27.58057 | 21.73892 | 37117 ft | 553 kts | 77° |
| 2026-05-05 20:23 | -27.56879 | 21.80980 | 37094 ft | 553 kts | 76° |
| 2026-05-05 20:23 | -27.55459 | 21.89488 | 37110 ft | 552 kts | 76° |
| 2026-05-05 20:24 | -27.54046 | 21.97925 | 37124 ft | 553 kts | 76° |
| 2026-05-05 20:24 | -27.52615 | 22.06438 | 37118 ft | 553 kts | 76° |
| 2026-05-05 20:25 | -27.51180 | 22.14945 | 37099 ft | 553 kts | 75° |
| 2026-05-05 20:25 | -27.49484 | 22.23375 | 37113 ft | 548 kts | 68° |
| 2026-05-05 20:26 | -27.46723 | 22.31310 | 37125 ft | 543 kts | 61° |
| 2026-05-05 20:26 | -27.43708 | 22.39105 | 37110 ft | 543 kts | 61° |
| 2026-05-05 20:27 | -27.40718 | 22.46916 | 37085 ft | 544 kts | 61° |
| 2026-05-05 20:27 | -27.37756 | 22.54754 | 37101 ft | 544 kts | 61° |
| 2026-05-05 20:28 | -27.34801 | 22.62589 | 37093 ft | 544 kts | 61° |
| 2026-05-05 20:28 | -27.31842 | 22.70418 | 37043 ft | 543 kts | 60° |
| 2026-05-05 20:29 | -27.28882 | 22.78223 | 37097 ft | 544 kts | 60° |
| 2026-05-05 20:29 | -27.25908 | 22.86042 | 37093 ft | 544 kts | 59° |
| 2026-05-05 20:30 | -27.22927 | 22.93867 | 37098 ft | 545 kts | 59° |
| 2026-05-05 20:30 | -27.19939 | 23.01695 | 37097 ft | 546 kts | 59° |
| 2026-05-05 20:31 | -27.16941 | 23.09534 | 37107 ft | 546 kts | 59° |
| 2026-05-05 20:31 | -27.13945 | 23.17357 | 37092 ft | 544 kts | 59° |
| 2026-05-05 20:32 | -27.10951 | 23.25160 | 37090 ft | 542 kts | 59° |
| 2026-05-05 20:32 | -27.07969 | 23.32912 | 37092 ft | 540 kts | 59° |
| 2026-05-05 20:33 | -27.05009 | 23.40591 | 37099 ft | 539 kts | 59° |
| 2026-05-05 20:33 | -27.02036 | 23.48289 | 37103 ft | 536 kts | 58° |
| 2026-05-05 20:34 | -26.99070 | 23.55955 | 37091 ft | 535 kts | 58° |
| 2026-05-05 20:34 | -26.96104 | 23.63603 | 37094 ft | 535 kts | 58° |
| 2026-05-05 20:35 | -26.93131 | 23.71254 | 37096 ft | 535 kts | 58° |
| 2026-05-05 20:35 | -26.90160 | 23.78890 | 37072 ft | 533 kts | 57° |
| 2026-05-05 20:36 | -26.87197 | 23.86492 | 37091 ft | 532 kts | 57° |
| 2026-05-05 20:36 | -26.84230 | 23.94086 | 37097 ft | 532 kts | 57° |
| 2026-05-05 20:37 | -26.81260 | 24.01673 | 37016 ft | 531 kts | 57° |
| 2026-05-05 20:37 | -26.78313 | 24.09189 | 37058 ft | 530 kts | 57° |
| 2026-05-05 20:38 | -26.75349 | 24.16736 | 37072 ft | 529 kts | 57° |
| 2026-05-05 20:38 | -26.72384 | 24.24268 | 37093 ft | 528 kts | 57° |
| 2026-05-05 20:39 | -26.69422 | 24.31778 | 37080 ft | 527 kts | 57° |
| 2026-05-05 20:39 | -26.66479 | 24.39226 | 37047 ft | 527 kts | 56° |
| 2026-05-05 20:40 | -26.63525 | 24.46696 | 37071 ft | 524 kts | 56° |
| 2026-05-05 20:40 | -26.60580 | 24.54126 | 37077 ft | 522 kts | 56° |
| 2026-05-05 20:41 | -26.57636 | 24.61534 | 37078 ft | 521 kts | 56° |
| 2026-05-05 20:41 | -26.54695 | 24.68922 | 37074 ft | 520 kts | 56° |
| 2026-05-05 20:42 | -26.51751 | 24.76304 | 37074 ft | 520 kts | 56° |
| 2026-05-05 20:42 | -26.48807 | 24.83675 | 37069 ft | 520 kts | 56° |
| 2026-05-05 20:43 | -26.45854 | 24.91054 | 37075 ft | 521 kts | 56° |
| 2026-05-05 20:43 | -26.42894 | 24.98437 | 37070 ft | 522 kts | 56° |
| 2026-05-05 20:44 | -26.39930 | 25.05824 | 37036 ft | 521 kts | 55° |
| 2026-05-05 20:44 | -26.36989 | 25.13138 | 37047 ft | 520 kts | 55° |
| 2026-05-05 20:45 | -26.32543 | 25.24165 | 37046 ft | 519 kts | 55° |
| 2026-05-05 20:45 | -26.29578 | 25.31503 | 36984 ft | 519 kts | 55° |
| 2026-05-05 20:46 | -26.26613 | 25.38830 | 37020 ft | 519 kts | 55° |
| 2026-05-05 20:46 | -26.23630 | 25.46186 | 37035 ft | 522 kts | 55° |
| 2026-05-05 20:47 | -26.20631 | 25.53570 | 37030 ft | 524 kts | 55° |
| 2026-05-05 20:47 | -26.17614 | 25.60980 | 37030 ft | 526 kts | 55° |
| 2026-05-05 20:48 | -26.14592 | 25.68399 | 37009 ft | 525 kts | 55° |
| 2026-05-05 20:48 | -26.11601 | 25.75736 | 37016 ft | 523 kts | 55° |
| 2026-05-05 20:49 | -26.08597 | 25.83086 | 37014 ft | 521 kts | 55° |
| 2026-05-05 20:49 | -26.05598 | 25.90408 | 37016 ft | 519 kts | 55° |
| 2026-05-05 20:50 | -26.02604 | 25.97703 | 37009 ft | 517 kts | 55° |
| 2026-05-05 20:50 | -25.99624 | 26.04957 | 37008 ft | 515 kts | 55° |
| 2026-05-05 20:51 | -25.96654 | 26.12172 | 37011 ft | 511 kts | 55° |
| 2026-05-05 20:51 | -25.93737 | 26.19261 | 36594 ft | 499 kts | 54° |
| 2026-05-05 20:52 | -25.92299 | 26.22743 | 36179 ft | 494 kts | 54° |
| 2026-05-05 20:52 | -25.90872 | 26.26194 | 35734 ft | 488 kts | 55° |
| 2026-05-05 20:52 | -25.89478 | 26.29559 | 35328 ft | 483 kts | 55° |
| 2026-05-05 20:52 | -25.88076 | 26.32936 | 34896 ft | 478 kts | 54° |
| 2026-05-05 20:53 | -25.86689 | 26.36269 | 34482 ft | 474 kts | 54° |
| 2026-05-05 20:53 | -25.85310 | 26.39579 | 34063 ft | 470 kts | 54° |
| 2026-05-05 20:53 | -25.83940 | 26.42863 | 33549 ft | 467 kts | 54° |
| 2026-05-05 20:53 | -25.82581 | 26.46117 | 33095 ft | 463 kts | 54° |
| 2026-05-05 20:54 | -25.81234 | 26.49345 | 32659 ft | 459 kts | 54° |
| 2026-05-05 20:54 | -25.79899 | 26.52541 | 32234 ft | 455 kts | 54° |
| 2026-05-05 20:54 | -25.78571 | 26.55717 | 31800 ft | 452 kts | 54° |
| 2026-05-05 20:54 | -25.77251 | 26.58871 | 31351 ft | 448 kts | 54° |
| 2026-05-05 20:55 | -25.75945 | 26.61989 | 30968 ft | 445 kts | 54° |
| 2026-05-05 20:55 | -25.74645 | 26.65091 | 30576 ft | 441 kts | 54° |
| 2026-05-05 20:55 | -25.73353 | 26.68171 | 30178 ft | 439 kts | 54° |
| 2026-05-05 20:55 | -25.72069 | 26.71230 | 29714 ft | 436 kts | 54° |
| 2026-05-05 20:56 | -25.70791 | 26.74273 | 29265 ft | 434 kts | 54° |
| 2026-05-05 20:56 | -25.69523 | 26.77293 | 28847 ft | 431 kts | 54° |
| 2026-05-05 20:56 | -25.68262 | 26.80292 | 28433 ft | 428 kts | 54° |
| 2026-05-05 20:56 | -25.67092 | 26.83325 | 28001 ft | 432 kts | 62° |
| 2026-05-05 20:57 | -25.66404 | 26.86609 | 27599 ft | 443 kts | 73° |
| 2026-05-05 20:57 | -25.66229 | 26.89991 | 27220 ft | 449 kts | 86° |
| 2026-05-05 20:57 | -25.66522 | 26.93449 | 26845 ft | 449 kts | 90° |
| 2026-05-05 20:57 | -25.66916 | 26.96877 | 26468 ft | 448 kts | 91° |
| 2026-05-05 20:58 | -25.67101 | 26.98413 | 26298 ft | 447 kts | 91° |
| 2026-05-05 20:58 | -25.67509 | 27.01822 | 25920 ft | 445 kts | 91° |
| 2026-05-05 20:58 | -25.67898 | 27.05214 | 25535 ft | 442 kts | 90° |
| 2026-05-05 20:58 | -25.68268 | 27.08587 | 25154 ft | 441 kts | 90° |
| 2026-05-05 20:59 | -25.68624 | 27.11957 | 24767 ft | 440 kts | 90° |
| 2026-05-05 20:59 | -25.68972 | 27.15323 | 24358 ft | 440 kts | 90° |
| 2026-05-05 20:59 | -25.69317 | 27.18698 | 23915 ft | 439 kts | 90° |
| 2026-05-05 20:59 | -25.69662 | 27.22049 | 23550 ft | 437 kts | 90° |
| 2026-05-05 21:00 | -25.70005 | 27.25397 | 23103 ft | 436 kts | 90° |
| 2026-05-05 21:00 | -25.70344 | 27.28713 | 22705 ft | 433 kts | 90° |
| 2026-05-05 21:00 | -25.70682 | 27.32015 | 22312 ft | 430 kts | 90° |
| 2026-05-05 21:00 | -25.71017 | 27.35303 | 21921 ft | 427 kts | 90° |
| 2026-05-05 21:01 | -25.71349 | 27.38566 | 21548 ft | 425 kts | 90° |
| 2026-05-05 21:01 | -25.71679 | 27.41814 | 21201 ft | 421 kts | 90° |
| 2026-05-05 21:01 | -25.72260 | 27.44969 | 20982 ft | 420 kts | 105° |
| 2026-05-05 21:01 | -25.73627 | 27.47827 | 20608 ft | 419 kts | 120° |
| 2026-05-05 21:02 | -25.75194 | 27.50488 | 20268 ft | 416 kts | 121° |
| 2026-05-05 21:02 | -25.76776 | 27.53181 | 19920 ft | 415 kts | 120° |
| 2026-05-05 21:02 | -25.78332 | 27.55875 | 19569 ft | 413 kts | 119° |
| 2026-05-05 21:02 | -25.79863 | 27.58569 | 19190 ft | 413 kts | 119° |
| 2026-05-05 21:03 | -25.81366 | 27.61239 | 18793 ft | 402 kts | 118° |
| 2026-05-05 21:03 | -25.82824 | 27.63840 | 18459 ft | 391 kts | 118° |
| 2026-05-05 21:03 | -25.84240 | 27.66377 | 18086 ft | 382 kts | 117° |
| 2026-05-05 21:03 | -25.85620 | 27.68855 | 17713 ft | 373 kts | 117° |
| 2026-05-05 21:04 | -25.86972 | 27.71280 | 17397 ft | 366 kts | 117° |
| 2026-05-05 21:04 | -25.88318 | 27.73698 | 17093 ft | 372 kts | 117° |
| 2026-05-05 21:04 | -25.89695 | 27.76175 | 16766 ft | 381 kts | 117° |
| 2026-05-05 21:04 | -25.91096 | 27.78693 | 16411 ft | 384 kts | 117° |
| 2026-05-05 21:05 | -25.92482 | 27.81178 | 16074 ft | 383 kts | 117° |
| 2026-05-05 21:05 | -25.93899 | 27.83721 | 15653 ft | 383 kts | 117° |
| 2026-05-05 21:05 | -25.95286 | 27.86215 | 15250 ft | 384 kts | 117° |
| 2026-05-05 21:05 | -25.96685 | 27.88732 | 14898 ft | 383 kts | 118° |
| 2026-05-05 21:06 | -25.98085 | 27.91249 | 14538 ft | 381 kts | 118° |
| 2026-05-05 21:06 | -25.99456 | 27.93715 | 14260 ft | 371 kts | 118° |
| 2026-05-05 21:06 | -26.00796 | 27.96126 | 14126 ft | 362 kts | 117° |
| 2026-05-05 21:06 | -26.02095 | 27.98464 | 13990 ft | 346 kts | 117° |
| 2026-05-05 21:07 | -26.03203 | 28.00734 | 13872 ft | 320 kts | 101° |
| 2026-05-05 21:07 | -26.03479 | 28.03024 | 13784 ft | 282 kts | 72° |
| 2026-05-05 21:07 | -26.03022 | 28.05015 | 13621 ft | 252 kts | 52° |
| 2026-05-05 21:07 | -26.02152 | 28.06616 | 13340 ft | 236 kts | 39° |
| 2026-05-05 21:08 | -26.01063 | 28.07996 | 13064 ft | 242 kts | 34° |
| 2026-05-05 21:08 | -25.99780 | 28.09196 | 12746 ft | 236 kts | 18° |
| 2026-05-05 21:08 | -25.98303 | 28.09784 | 12449 ft | 220 kts | 5° |
| 2026-05-05 21:08 | -25.96869 | 28.10205 | 12190 ft | 214 kts | 6° |
| 2026-05-05 21:09 | -25.95439 | 28.10644 | 11891 ft | 211 kts | 9° |
| 2026-05-05 21:09 | -25.94175 | 28.11531 | 11568 ft | 223 kts | 38° |
| 2026-05-05 21:09 | -25.93277 | 28.12955 | 11344 ft | 231 kts | 56° |
| 2026-05-05 21:09 | -25.92880 | 28.14724 | 11091 ft | 240 kts | 77° |
| 2026-05-05 21:10 | -25.92689 | 28.16564 | 10829 ft | 241 kts | 76° |
| 2026-05-05 21:10 | -25.92481 | 28.18405 | 10583 ft | 240 kts | 76° |
| 2026-05-05 21:10 | -25.92267 | 28.20244 | 10336 ft | 240 kts | 76° |
| 2026-05-05 21:10 | -25.92049 | 28.22080 | 10091 ft | 240 kts | 77° |
| 2026-05-05 21:11 | -25.91829 | 28.23923 | 9835 ft | 241 kts | 77° |
| 2026-05-05 21:11 | -25.91735 | 28.25773 | 9518 ft | 241 kts | 97° |
| 2026-05-05 21:11 | -25.92075 | 28.26929 | 9341 ft | 237 kts | 120° |
| 2026-05-05 21:11 | -25.93113 | 28.28292 | 9104 ft | 227 kts | 143° |
| 2026-05-05 21:12 | -25.94336 | 28.29388 | 8840 ft | 225 kts | 155° |
| 2026-05-05 21:12 | -25.95775 | 28.29777 | 8635 ft | 204 kts | 194° |
| 2026-05-05 21:12 | -25.97011 | 28.29286 | 8435 ft | 182 kts | 213° |
| 2026-05-05 21:12 | -25.98163 | 28.28738 | 8209 ft | 176 kts | 209° |
| 2026-05-05 21:13 | -25.99262 | 28.28267 | 7979 ft | 164 kts | 207° |
| 2026-05-05 21:13 | -26.00352 | 28.27878 | 7769 ft | 166 kts | 204° |
| 2026-05-05 21:13 | -26.01479 | 28.27515 | 7556 ft | 171 kts | 202° |
| 2026-05-05 21:13 | -26.02621 | 28.27159 | 7334 ft | 169 kts | 202° |
| 2026-05-05 21:14 | -26.03713 | 28.26821 | 7120 ft | 162 kts | 202° |
| 2026-05-05 21:14 | -26.04798 | 28.26485 | 6934 ft | 163 kts | 202° |
| 2026-05-05 21:14 | -26.05895 | 28.26142 | 6726 ft | 164 kts | 201° |
| 2026-05-05 21:14 | -26.06994 | 28.25803 | 6505 ft | 163 kts | 201° |
| 2026-05-05 21:15 | -26.08076 | 28.25467 | 6257 ft | 159 kts | 200° |
| 2026-05-05 21:15 | -26.09129 | 28.25140 | 6002 ft | 154 kts | 199° |
| 2026-05-05 21:15 | -26.10167 | 28.24827 | 5771 ft | 156 kts | 199° |
| 2026-05-05 21:15 | -26.11207 | 28.24509 | 5572 ft | 155 kts | 199° |
| 2026-05-05 21:16 | -26.12230 | 28.24182 | 5544 ft | 145 kts | 198° |
| 2026-05-05 21:16 | -26.13056 | 28.23930 | 5554 ft | 101 kts | 195° |
| 2026-05-05 21:16 | -26.13492 | 28.23797 | 5559 ft | 57 kts | 194° |
| 2026-05-05 21:16 | -26.13737 | 28.23718 | 5567 ft | 6 kts | 197° |
| 2026-05-05 21:17 | -26.13774 | 28.23706 | 5566 ft | 6 kts | 197° |
| 2026-05-05 21:17 | -26.13811 | 28.23693 | 5569 ft | 6 kts | 198° |
| 2026-05-05 21:17 | -26.13832 | 28.23659 | 5568 ft | 6 kts | 258° |
| 2026-05-05 21:17 | -26.13830 | 28.23616 | 5568 ft | 6 kts | 281° |
| 2026-05-05 21:18 | -26.13821 | 28.23573 | 5567 ft | 6 kts | 285° |
| 2026-05-05 21:18 | -26.13808 | 28.23528 | 5567 ft | 7 kts | 288° |
| 2026-05-05 21:18 | -26.13789 | 28.23459 | 5558 ft | 10 kts | 286° |
| 2026-05-05 21:18 | -26.13768 | 28.23381 | 5556 ft | 7 kts | 295° |
| 2026-05-05 21:19 | -26.13729 | 28.23347 | 5554 ft | 7 kts | 338° |
| 2026-05-05 21:19 | -26.13683 | 28.23343 | 5555 ft | 6 kts | 342° |
| 2026-05-05 21:19 | -26.13662 | 28.23300 | 5556 ft | 7 kts | 282° |
| 2026-05-05 21:19 | -26.13659 | 28.23274 | 5555 ft | 2 kts | 276° |